ACA836 CYYZ-EDDM
Flight info
| Callsign | ACA836 |
|---|---|
| Flight time | 7h 27m |
| Altitude | 37000 |
| Route | VERDO7 IPTOS Q921 AGLUK DCT CEFOU N579A TUDEP/M083F380 NATX GISTI/N0475F390 DCT LUNIG DCT WTD DCT ENJEX DCT ADHAV DCT AGCAT DCT AXNEF DCT ZIPWE DCT OZZIL DCT SAWPE Q63 CPT UL9 BIG L607 KONAN DCT KOK DCT SPI DCT MOVUM T109 HAREM/N0479F350 T104 ELMOX/N0450F270 T104 ROKIL ROKIL1B |
| Aircraft | B77L/H-SDE1E2E3FGHIJ2J3J4J5M1RWXY/LB1D1 |
Departure
| Time | 2026-05-06 22:09 |
|---|---|
| Airport | Toronto Pearson International Airport (CYYZ) |
Arrival
| Time | 2026-05-07 05:36 |
|---|---|
| Airport | Munich Airport (EDDM) |
| Time | Latitude | Longitude | Altitude | Speed | Heading |
|---|---|---|---|---|---|
| 2026-05-06 21:10 | 43.67722 | -79.60968 | 566 ft | 0 kts | 245° |
| 2026-05-06 21:50 | 43.67731 | -79.60944 | 575 ft | 4 kts | 237° |
| 2026-05-06 21:50 | 43.67747 | -79.60915 | 575 ft | 4 kts | 218° |
| 2026-05-06 21:51 | 43.67770 | -79.60898 | 570 ft | 4 kts | 186° |
| 2026-05-06 21:51 | 43.67789 | -79.60903 | 575 ft | 1 kts | 140° |
| 2026-05-06 21:54 | 43.67789 | -79.60902 | 566 ft | 1 kts | 140° |
| 2026-05-06 21:54 | 43.67766 | -79.60875 | 568 ft | 6 kts | 140° |
| 2026-05-06 21:54 | 43.67732 | -79.60832 | 571 ft | 9 kts | 136° |
| 2026-05-06 21:55 | 43.67688 | -79.60771 | 573 ft | 9 kts | 128° |
| 2026-05-06 21:55 | 43.67677 | -79.60693 | 568 ft | 8 kts | 92° |
| 2026-05-06 21:55 | 43.67644 | -79.60631 | 573 ft | 9 kts | 160° |
| 2026-05-06 21:55 | 43.67603 | -79.60647 | 570 ft | 11 kts | 215° |
| 2026-05-06 21:56 | 43.67541 | -79.60728 | 573 ft | 14 kts | 226° |
| 2026-05-06 21:56 | 43.67466 | -79.60839 | 571 ft | 17 kts | 229° |
| 2026-05-06 21:56 | 43.67392 | -79.60973 | 574 ft | 17 kts | 232° |
| 2026-05-06 21:56 | 43.67320 | -79.61104 | 569 ft | 17 kts | 233° |
| 2026-05-06 21:57 | 43.67271 | -79.61209 | 570 ft | 9 kts | 255° |
| 2026-05-06 21:57 | 43.67297 | -79.61285 | 570 ft | 13 kts | 313° |
| 2026-05-06 21:57 | 43.67383 | -79.61399 | 571 ft | 18 kts | 317° |
| 2026-05-06 21:57 | 43.67476 | -79.61521 | 573 ft | 19 kts | 316° |
| 2026-05-06 21:58 | 43.67576 | -79.61650 | 574 ft | 19 kts | 316° |
| 2026-05-06 21:58 | 43.67670 | -79.61773 | 574 ft | 18 kts | 316° |
| 2026-05-06 21:58 | 43.67761 | -79.61892 | 575 ft | 17 kts | 317° |
| 2026-05-06 21:58 | 43.67844 | -79.62000 | 573 ft | 13 kts | 316° |
| 2026-05-06 21:59 | 43.67916 | -79.62067 | 569 ft | 12 kts | 341° |
| 2026-05-06 21:59 | 43.67999 | -79.62135 | 569 ft | 17 kts | 317° |
| 2026-05-06 21:59 | 43.68100 | -79.62267 | 573 ft | 21 kts | 316° |
| 2026-05-06 21:59 | 43.68201 | -79.62398 | 573 ft | 19 kts | 317° |
| 2026-05-06 22:00 | 43.68298 | -79.62513 | 571 ft | 18 kts | 318° |
| 2026-05-06 22:00 | 43.68381 | -79.62621 | 575 ft | 12 kts | 316° |
| 2026-05-06 22:00 | 43.68430 | -79.62698 | 576 ft | 10 kts | 292° |
| 2026-05-06 22:00 | 43.68400 | -79.62795 | 575 ft | 16 kts | 228° |
| 2026-05-06 22:01 | 43.68330 | -79.62899 | 575 ft | 13 kts | 226° |
| 2026-05-06 22:01 | 43.68266 | -79.62991 | 576 ft | 13 kts | 226° |
| 2026-05-06 22:01 | 43.68205 | -79.63080 | 580 ft | 12 kts | 226° |
| 2026-05-06 22:01 | 43.68171 | -79.63161 | 577 ft | 10 kts | 272° |
| 2026-05-06 22:02 | 43.68212 | -79.63242 | 576 ft | 13 kts | 315° |
| 2026-05-06 22:02 | 43.68293 | -79.63347 | 577 ft | 19 kts | 316° |
| 2026-05-06 22:02 | 43.68388 | -79.63471 | 576 ft | 18 kts | 316° |
| 2026-05-06 22:02 | 43.68478 | -79.63589 | 577 ft | 18 kts | 316° |
| 2026-05-06 22:03 | 43.68565 | -79.63702 | 574 ft | 16 kts | 316° |
| 2026-05-06 22:03 | 43.68638 | -79.63797 | 580 ft | 12 kts | 317° |
| 2026-05-06 22:03 | 43.68669 | -79.63883 | 576 ft | 12 kts | 278° |
| 2026-05-06 22:03 | 43.68673 | -79.64034 | 570 ft | 17 kts | 271° |
| 2026-05-06 22:04 | 43.68673 | -79.64145 | 574 ft | 10 kts | 264° |
| 2026-05-06 22:04 | 43.68634 | -79.64233 | 578 ft | 13 kts | 227° |
| 2026-05-06 22:04 | 43.68558 | -79.64345 | 574 ft | 19 kts | 226° |
| 2026-05-06 22:04 | 43.68459 | -79.64487 | 577 ft | 22 kts | 226° |
| 2026-05-06 22:05 | 43.68348 | -79.64650 | 577 ft | 24 kts | 227° |
| 2026-05-06 22:05 | 43.68237 | -79.64809 | 578 ft | 22 kts | 226° |
| 2026-05-06 22:05 | 43.68132 | -79.64962 | 579 ft | 23 kts | 226° |
| 2026-05-06 22:05 | 43.68014 | -79.65132 | 577 ft | 26 kts | 226° |
| 2026-05-06 22:06 | 43.67891 | -79.65311 | 577 ft | 25 kts | 226° |
| 2026-05-06 22:06 | 43.67773 | -79.65483 | 577 ft | 23 kts | 226° |
| 2026-05-06 22:06 | 43.67664 | -79.65641 | 575 ft | 22 kts | 226° |
| 2026-05-06 22:06 | 43.67561 | -79.65788 | 580 ft | 21 kts | 226° |
| 2026-05-06 22:07 | 43.67461 | -79.65935 | 580 ft | 21 kts | 226° |
| 2026-05-06 22:07 | 43.67361 | -79.66081 | 576 ft | 21 kts | 226° |
| 2026-05-06 22:07 | 43.67290 | -79.66188 | 575 ft | 10 kts | 240° |
| 2026-05-06 22:07 | 43.67303 | -79.66275 | 575 ft | 11 kts | 311° |
| 2026-05-06 22:08 | 43.67366 | -79.66343 | 567 ft | 12 kts | 329° |
| 2026-05-06 22:08 | 43.67442 | -79.66358 | 568 ft | 12 kts | 19° |
| 2026-05-06 22:08 | 43.67570 | -79.66185 | 577 ft | 43 kts | 46° |
| 2026-05-06 22:08 | 43.67960 | -79.65617 | 573 ft | 120 kts | 46° |
| 2026-05-06 22:09 | 43.68691 | -79.64569 | 635 ft | 173 kts | 45° |
| 2026-05-06 22:09 | 43.69508 | -79.63355 | 1378 ft | 172 kts | 43° |
| 2026-05-06 22:09 | 43.70432 | -79.62306 | 2085 ft | 177 kts | 30° |
| 2026-05-06 22:09 | 43.71458 | -79.61350 | 2732 ft | 179 kts | 32° |
| 2026-05-06 22:10 | 43.72459 | -79.60279 | 3373 ft | 183 kts | 35° |
| 2026-05-06 22:10 | 43.73415 | -79.59087 | 3928 ft | 193 kts | 54° |
| 2026-05-06 22:10 | 43.73777 | -79.57197 | 4133 ft | 218 kts | 86° |
| 2026-05-06 22:10 | 43.73801 | -79.54981 | 4387 ft | 244 kts | 86° |
| 2026-05-06 22:11 | 43.73850 | -79.52523 | 4786 ft | 264 kts | 86° |
| 2026-05-06 22:11 | 43.73919 | -79.49933 | 5454 ft | 275 kts | 86° |
| 2026-05-06 22:11 | 43.74006 | -79.47241 | 6225 ft | 284 kts | 87° |
| 2026-05-06 22:11 | 43.74108 | -79.44506 | 6735 ft | 285 kts | 87° |
| 2026-05-06 22:12 | 43.74220 | -79.41718 | 7031 ft | 297 kts | 86° |
| 2026-05-06 22:12 | 43.74344 | -79.38843 | 7025 ft | 299 kts | 86° |
| 2026-05-06 22:12 | 43.74467 | -79.36087 | 7008 ft | 296 kts | 86° |
| 2026-05-06 22:12 | 43.74601 | -79.33171 | 7018 ft | 293 kts | 86° |
| 2026-05-06 22:13 | 43.74733 | -79.30359 | 7028 ft | 293 kts | 86° |
| 2026-05-06 22:13 | 43.74865 | -79.27549 | 7248 ft | 296 kts | 86° |
| 2026-05-06 22:13 | 43.75000 | -79.24691 | 7965 ft | 303 kts | 86° |
| 2026-05-06 22:13 | 43.75139 | -79.21717 | 8698 ft | 311 kts | 86° |
| 2026-05-06 22:14 | 43.75280 | -79.18695 | 9423 ft | 318 kts | 87° |
| 2026-05-06 22:14 | 43.75424 | -79.15602 | 10104 ft | 326 kts | 87° |
| 2026-05-06 22:14 | 43.75571 | -79.12404 | 10565 ft | 344 kts | 87° |
| 2026-05-06 22:14 | 43.75727 | -79.08970 | 10766 ft | 371 kts | 87° |
| 2026-05-06 22:15 | 43.75894 | -79.05282 | 10967 ft | 397 kts | 88° |
| 2026-05-06 22:15 | 43.76071 | -79.01396 | 11535 ft | 411 kts | 88° |
| 2026-05-06 22:15 | 43.76252 | -78.97396 | 12321 ft | 421 kts | 88° |
| 2026-05-06 22:15 | 43.76435 | -78.93322 | 13251 ft | 427 kts | 88° |
| 2026-05-06 22:16 | 43.76620 | -78.89194 | 14099 ft | 434 kts | 88° |
| 2026-05-06 22:16 | 43.76804 | -78.84996 | 14868 ft | 441 kts | 88° |
| 2026-05-06 22:16 | 43.77046 | -78.80730 | 15624 ft | 449 kts | 84° |
| 2026-05-06 22:16 | 43.77659 | -78.76450 | 16360 ft | 458 kts | 76° |
| 2026-05-06 22:17 | 43.78640 | -78.72220 | 17109 ft | 466 kts | 69° |
| 2026-05-06 22:17 | 43.79976 | -78.68101 | 17808 ft | 473 kts | 64° |
| 2026-05-06 22:17 | 43.81405 | -78.64032 | 18491 ft | 479 kts | 64° |
| 2026-05-06 22:17 | 43.82902 | -78.59826 | 19206 ft | 483 kts | 64° |
| 2026-05-06 22:18 | 43.84391 | -78.55630 | 19949 ft | 486 kts | 64° |
| 2026-05-06 22:18 | 43.85876 | -78.51403 | 20653 ft | 492 kts | 64° |
| 2026-05-06 22:18 | 43.87370 | -78.47108 | 21286 ft | 497 kts | 64° |
| 2026-05-06 22:18 | 43.88869 | -78.42761 | 21939 ft | 502 kts | 65° |
| 2026-05-06 22:19 | 43.90355 | -78.38430 | 22620 ft | 506 kts | 65° |
| 2026-05-06 22:19 | 43.91891 | -78.33938 | 23281 ft | 511 kts | 65° |
| 2026-05-06 22:19 | 43.93418 | -78.29467 | 23867 ft | 515 kts | 64° |
| 2026-05-06 22:19 | 43.94955 | -78.24957 | 24404 ft | 519 kts | 64° |
| 2026-05-06 22:20 | 43.96507 | -78.20401 | 24977 ft | 523 kts | 64° |
| 2026-05-06 22:20 | 43.98063 | -78.15824 | 25523 ft | 527 kts | 64° |
| 2026-05-06 22:20 | 43.99631 | -78.11209 | 26084 ft | 530 kts | 64° |
| 2026-05-06 22:20 | 44.01202 | -78.06573 | 26671 ft | 533 kts | 64° |
| 2026-05-06 22:21 | 44.02783 | -78.01902 | 27204 ft | 537 kts | 64° |
| 2026-05-06 22:21 | 44.04314 | -77.97371 | 27688 ft | 540 kts | 64° |
| 2026-05-06 22:21 | 44.05914 | -77.92629 | 28168 ft | 543 kts | 64° |
| 2026-05-06 22:21 | 44.07517 | -77.87864 | 28680 ft | 546 kts | 64° |
| 2026-05-06 22:22 | 44.09128 | -77.83069 | 29159 ft | 549 kts | 64° |
| 2026-05-06 22:22 | 44.10744 | -77.78252 | 29665 ft | 550 kts | 64° |
| 2026-05-06 22:22 | 44.12362 | -77.73419 | 30235 ft | 549 kts | 64° |
| 2026-05-06 22:22 | 44.13969 | -77.68608 | 30753 ft | 549 kts | 64° |
| 2026-05-06 22:23 | 44.15581 | -77.63777 | 31188 ft | 550 kts | 64° |
| 2026-05-06 22:23 | 44.17193 | -77.58939 | 31578 ft | 552 kts | 64° |
| 2026-05-06 22:23 | 44.18839 | -77.54115 | 32070 ft | 550 kts | 61° |
| 2026-05-06 22:23 | 44.20718 | -77.49477 | 32536 ft | 550 kts | 56° |
| 2026-05-06 22:24 | 44.22870 | -77.45074 | 32931 ft | 549 kts | 49° |
| 2026-05-06 22:24 | 44.25246 | -77.40926 | 33315 ft | 549 kts | 47° |
| 2026-05-06 22:24 | 44.27664 | -77.36798 | 33714 ft | 549 kts | 47° |
| 2026-05-06 22:24 | 44.30087 | -77.32672 | 34172 ft | 548 kts | 48° |
| 2026-05-06 22:25 | 44.32484 | -77.28560 | 34654 ft | 545 kts | 48° |
| 2026-05-06 22:25 | 44.34868 | -77.24434 | 34935 ft | 547 kts | 48° |
| 2026-05-06 22:25 | 44.37257 | -77.20266 | 35176 ft | 550 kts | 49° |
| 2026-05-06 22:25 | 44.39640 | -77.16086 | 35453 ft | 551 kts | 48° |
| 2026-05-06 22:26 | 44.42022 | -77.11890 | 35787 ft | 551 kts | 48° |
| 2026-05-06 22:26 | 44.44405 | -77.07686 | 36098 ft | 551 kts | 48° |
| 2026-05-06 22:26 | 44.46783 | -77.03487 | 36431 ft | 551 kts | 49° |
| 2026-05-06 22:26 | 44.49121 | -76.99356 | 36737 ft | 551 kts | 49° |
| 2026-05-06 22:27 | 44.51510 | -76.95131 | 36858 ft | 556 kts | 49° |
| 2026-05-06 22:27 | 44.53917 | -76.90871 | 36897 ft | 558 kts | 49° |
| 2026-05-06 22:27 | 44.58720 | -76.82346 | 36889 ft | 554 kts | 49° |
| 2026-05-06 22:28 | 44.63464 | -76.73898 | 36904 ft | 550 kts | 49° |
| 2026-05-06 22:28 | 44.68185 | -76.65469 | 36868 ft | 548 kts | 49° |
| 2026-05-06 22:29 | 44.72888 | -76.57051 | 36891 ft | 547 kts | 49° |
| 2026-05-06 22:29 | 44.77591 | -76.48605 | 36928 ft | 549 kts | 49° |
| 2026-05-06 22:30 | 44.82306 | -76.40112 | 36892 ft | 551 kts | 49° |
| 2026-05-06 22:30 | 44.87032 | -76.31575 | 36878 ft | 554 kts | 49° |
| 2026-05-06 22:31 | 44.91385 | -76.22585 | 36875 ft | 558 kts | 60° |
| 2026-05-06 22:31 | 44.94635 | -76.12649 | 36847 ft | 559 kts | 71° |
| 2026-05-06 22:32 | 44.97105 | -76.02338 | 36864 ft | 558 kts | 72° |
| 2026-05-06 22:32 | 44.99515 | -75.92055 | 36861 ft | 557 kts | 72° |
| 2026-05-06 22:33 | 45.01993 | -75.81691 | 36859 ft | 556 kts | 71° |
| 2026-05-06 22:33 | 45.04488 | -75.71352 | 36859 ft | 556 kts | 71° |
| 2026-05-06 22:34 | 45.06973 | -75.61016 | 36879 ft | 554 kts | 71° |
| 2026-05-06 22:34 | 45.09437 | -75.50696 | 36856 ft | 553 kts | 72° |
| 2026-05-06 22:35 | 45.11887 | -75.40376 | 36860 ft | 552 kts | 72° |
| 2026-05-06 22:35 | 45.14325 | -75.30063 | 36857 ft | 552 kts | 72° |
| 2026-05-06 22:36 | 45.16746 | -75.19772 | 36838 ft | 551 kts | 72° |
| 2026-05-06 22:36 | 45.19159 | -75.09467 | 36880 ft | 551 kts | 72° |
| 2026-05-06 22:37 | 45.21539 | -74.99260 | 36858 ft | 551 kts | 72° |
| 2026-05-06 22:37 | 45.24131 | -74.89038 | 36850 ft | 551 kts | 64° |
| 2026-05-06 22:38 | 45.28060 | -74.79760 | 36865 ft | 548 kts | 51° |
| 2026-05-06 22:38 | 45.33068 | -74.71790 | 36869 ft | 543 kts | 42° |
| 2026-05-06 22:39 | 45.38373 | -74.64036 | 36868 ft | 544 kts | 43° |
| 2026-05-06 22:39 | 45.43622 | -74.56264 | 36860 ft | 545 kts | 43° |
| 2026-05-06 22:40 | 45.48794 | -74.48467 | 36864 ft | 545 kts | 43° |
| 2026-05-06 22:40 | 45.53989 | -74.40578 | 36868 ft | 546 kts | 44° |
| 2026-05-06 22:41 | 45.61777 | -74.28720 | 36862 ft | 545 kts | 44° |
| 2026-05-06 22:42 | 45.66957 | -74.20812 | 36862 ft | 545 kts | 44° |
| 2026-05-06 22:42 | 45.72123 | -74.12906 | 36864 ft | 544 kts | 44° |
| 2026-05-06 22:43 | 45.77287 | -74.04978 | 36853 ft | 543 kts | 44° |
| 2026-05-06 22:43 | 45.82380 | -73.97135 | 36865 ft | 542 kts | 44° |
| 2026-05-06 22:44 | 45.86646 | -73.90550 | 36863 ft | 542 kts | 44° |
| 2026-05-06 22:44 | 45.91774 | -73.82612 | 36858 ft | 542 kts | 44° |
| 2026-05-06 22:45 | 45.96897 | -73.74657 | 36854 ft | 542 kts | 44° |
| 2026-05-06 22:45 | 46.02005 | -73.66703 | 36871 ft | 542 kts | 44° |
| 2026-05-06 22:46 | 46.07111 | -73.58729 | 36856 ft | 542 kts | 44° |
| 2026-05-06 22:46 | 46.12210 | -73.50741 | 36853 ft | 542 kts | 45° |
| 2026-05-06 22:47 | 46.17304 | -73.42741 | 36871 ft | 541 kts | 45° |
| 2026-05-06 22:47 | 46.21998 | -73.34231 | 36867 ft | 544 kts | 55° |
| 2026-05-06 22:48 | 46.25733 | -73.24726 | 36865 ft | 544 kts | 61° |
| 2026-05-06 22:48 | 46.29281 | -73.15061 | 36843 ft | 544 kts | 61° |
| 2026-05-06 22:49 | 46.32844 | -73.05416 | 36862 ft | 544 kts | 61° |
| 2026-05-06 22:49 | 46.36400 | -72.95883 | 36850 ft | 544 kts | 61° |
| 2026-05-06 22:50 | 46.39995 | -72.86256 | 36851 ft | 543 kts | 61° |
| 2026-05-06 22:50 | 46.43574 | -72.76633 | 36852 ft | 543 kts | 61° |
| 2026-05-06 22:51 | 46.47143 | -72.66995 | 36859 ft | 542 kts | 61° |
| 2026-05-06 22:51 | 46.50702 | -72.57344 | 36852 ft | 542 kts | 62° |
| 2026-05-06 22:52 | 46.54251 | -72.47684 | 36860 ft | 542 kts | 62° |
| 2026-05-06 22:52 | 46.57787 | -72.38026 | 36853 ft | 541 kts | 62° |
| 2026-05-06 22:53 | 46.61311 | -72.28366 | 36855 ft | 540 kts | 62° |
| 2026-05-06 22:53 | 46.64802 | -72.18760 | 36859 ft | 541 kts | 62° |
| 2026-05-06 22:54 | 46.68309 | -72.09078 | 36864 ft | 540 kts | 62° |
| 2026-05-06 22:54 | 46.71765 | -71.99501 | 36842 ft | 540 kts | 62° |
| 2026-05-06 22:55 | 46.75250 | -71.89809 | 36835 ft | 540 kts | 62° |
| 2026-05-06 22:55 | 46.78727 | -71.80106 | 36811 ft | 540 kts | 63° |
| 2026-05-06 22:56 | 46.82190 | -71.70404 | 36833 ft | 539 kts | 63° |
| 2026-05-06 22:56 | 46.85644 | -71.60690 | 36832 ft | 538 kts | 63° |
| 2026-05-06 22:57 | 46.89086 | -71.50979 | 36832 ft | 538 kts | 63° |
| 2026-05-06 22:57 | 46.92517 | -71.41262 | 36844 ft | 538 kts | 63° |
| 2026-05-06 22:58 | 46.95936 | -71.31540 | 36838 ft | 538 kts | 63° |
| 2026-05-06 22:58 | 46.99351 | -71.21796 | 36818 ft | 537 kts | 64° |
| 2026-05-06 22:59 | 47.02746 | -71.12074 | 36853 ft | 536 kts | 64° |
| 2026-05-06 22:59 | 47.06133 | -71.02338 | 36883 ft | 536 kts | 64° |
| 2026-05-06 23:00 | 47.09473 | -70.92700 | 36863 ft | 536 kts | 64° |
| 2026-05-06 23:00 | 47.12844 | -70.82937 | 36848 ft | 537 kts | 64° |
| 2026-05-06 23:01 | 47.16214 | -70.73145 | 36852 ft | 537 kts | 64° |
| 2026-05-06 23:01 | 47.19570 | -70.63351 | 36812 ft | 536 kts | 64° |
| 2026-05-06 23:02 | 47.22914 | -70.53558 | 36829 ft | 535 kts | 64° |
| 2026-05-06 23:02 | 47.26244 | -70.43769 | 36841 ft | 535 kts | 64° |
| 2026-05-06 23:03 | 47.29569 | -70.33959 | 36833 ft | 535 kts | 64° |
| 2026-05-06 23:03 | 47.32882 | -70.24146 | 36836 ft | 535 kts | 65° |
| 2026-05-06 23:04 | 47.36168 | -70.14378 | 36837 ft | 536 kts | 65° |
| 2026-05-06 23:04 | 47.39474 | -70.04514 | 36816 ft | 536 kts | 65° |
| 2026-05-06 23:05 | 47.42730 | -69.94759 | 36834 ft | 537 kts | 66° |
| 2026-05-06 23:05 | 47.46022 | -69.84857 | 36833 ft | 538 kts | 66° |
| 2026-05-06 23:06 | 47.49312 | -69.74926 | 36854 ft | 538 kts | 66° |
| 2026-05-06 23:06 | 47.52599 | -69.64965 | 36841 ft | 539 kts | 66° |
| 2026-05-06 23:07 | 47.55882 | -69.54977 | 36837 ft | 540 kts | 66° |
| 2026-05-06 23:07 | 47.59157 | -69.44978 | 36833 ft | 539 kts | 67° |
| 2026-05-06 23:08 | 47.62425 | -69.34958 | 36834 ft | 540 kts | 67° |
| 2026-05-06 23:08 | 47.65680 | -69.24934 | 36845 ft | 540 kts | 67° |
| 2026-05-06 23:09 | 47.68928 | -69.14895 | 36846 ft | 540 kts | 67° |
| 2026-05-06 23:09 | 47.72172 | -69.04831 | 36845 ft | 540 kts | 67° |
| 2026-05-06 23:10 | 47.75341 | -68.94866 | 36852 ft | 539 kts | 68° |
| 2026-05-06 23:10 | 47.78426 | -68.84707 | 36849 ft | 539 kts | 69° |
| 2026-05-06 23:11 | 47.81473 | -68.74523 | 36846 ft | 540 kts | 69° |
| 2026-05-06 23:11 | 47.84535 | -68.64300 | 36846 ft | 541 kts | 69° |
| 2026-05-06 23:12 | 47.87605 | -68.54065 | 36841 ft | 542 kts | 69° |
| 2026-05-06 23:12 | 47.90671 | -68.43812 | 36841 ft | 542 kts | 69° |
| 2026-05-06 23:13 | 47.93734 | -68.33527 | 36846 ft | 543 kts | 69° |
| 2026-05-06 23:13 | 47.96768 | -68.23287 | 36835 ft | 543 kts | 70° |
| 2026-05-06 23:14 | 47.99808 | -68.12981 | 36840 ft | 543 kts | 70° |
| 2026-05-06 23:14 | 48.02843 | -68.02648 | 36839 ft | 544 kts | 70° |
| 2026-05-06 23:15 | 48.05833 | -67.92430 | 36849 ft | 545 kts | 70° |
| 2026-05-06 23:15 | 48.08862 | -67.82041 | 36840 ft | 545 kts | 70° |
| 2026-05-06 23:16 | 48.11882 | -67.71633 | 36846 ft | 545 kts | 70° |
| 2026-05-06 23:16 | 48.14891 | -67.61218 | 36846 ft | 545 kts | 70° |
| 2026-05-06 23:17 | 48.17890 | -67.50792 | 36836 ft | 544 kts | 70° |
| 2026-05-06 23:17 | 48.20876 | -67.40364 | 36845 ft | 544 kts | 70° |
| 2026-05-06 23:18 | 48.23850 | -67.29934 | 36840 ft | 544 kts | 70° |
| 2026-05-06 23:18 | 48.26816 | -67.19487 | 36848 ft | 544 kts | 70° |
| 2026-05-06 23:19 | 48.29771 | -67.09035 | 36807 ft | 544 kts | 70° |
| 2026-05-06 23:19 | 48.32681 | -66.98694 | 36841 ft | 543 kts | 70° |
| 2026-05-06 23:20 | 48.35616 | -66.88219 | 36847 ft | 544 kts | 71° |
| 2026-05-06 23:20 | 48.38540 | -66.77737 | 36851 ft | 544 kts | 71° |
| 2026-05-06 23:21 | 48.41454 | -66.67233 | 36855 ft | 544 kts | 71° |
| 2026-05-06 23:21 | 48.44346 | -66.56780 | 36848 ft | 544 kts | 71° |
| 2026-05-06 23:22 | 48.47252 | -66.46244 | 36799 ft | 545 kts | 71° |
| 2026-05-06 23:22 | 48.50145 | -66.35693 | 36836 ft | 545 kts | 71° |
| 2026-05-06 23:23 | 48.53028 | -66.25125 | 36831 ft | 545 kts | 71° |
| 2026-05-06 23:23 | 48.55905 | -66.14532 | 36848 ft | 546 kts | 71° |
| 2026-05-06 23:24 | 48.58775 | -66.03914 | 36845 ft | 546 kts | 71° |
| 2026-05-06 23:24 | 48.61598 | -65.93433 | 36859 ft | 546 kts | 72° |
| 2026-05-06 23:25 | 48.64448 | -65.82803 | 36816 ft | 545 kts | 72° |
| 2026-05-06 23:25 | 48.67282 | -65.72173 | 36835 ft | 545 kts | 72° |
| 2026-05-06 23:26 | 48.70110 | -65.61523 | 36855 ft | 545 kts | 72° |
| 2026-05-06 23:26 | 48.72928 | -65.50864 | 36850 ft | 546 kts | 72° |
| 2026-05-06 23:27 | 48.75739 | -65.40178 | 36840 ft | 546 kts | 72° |
| 2026-05-06 23:27 | 48.78542 | -65.29478 | 36850 ft | 546 kts | 72° |
| 2026-05-06 23:28 | 48.81335 | -65.18765 | 36821 ft | 546 kts | 72° |
| 2026-05-06 23:28 | 48.84115 | -65.08050 | 36841 ft | 546 kts | 72° |
| 2026-05-06 23:29 | 48.86850 | -64.97455 | 36839 ft | 546 kts | 72° |
| 2026-05-06 23:29 | 48.89616 | -64.86695 | 36838 ft | 547 kts | 73° |
| 2026-05-06 23:30 | 48.92371 | -64.75927 | 36854 ft | 547 kts | 73° |
| 2026-05-06 23:30 | 48.95101 | -64.65209 | 36858 ft | 546 kts | 73° |
| 2026-05-06 23:31 | 48.97835 | -64.54417 | 36827 ft | 547 kts | 73° |
| 2026-05-06 23:31 | 49.00554 | -64.43640 | 36843 ft | 548 kts | 73° |
| 2026-05-06 23:32 | 49.03278 | -64.32784 | 36854 ft | 548 kts | 73° |
| 2026-05-06 23:32 | 49.05993 | -64.21914 | 36856 ft | 549 kts | 73° |
| 2026-05-06 23:33 | 49.08703 | -64.11010 | 36863 ft | 550 kts | 73° |
| 2026-05-06 23:33 | 49.10952 | -64.01925 | 36861 ft | 551 kts | 73° |
| 2026-05-06 23:34 | 49.13622 | -63.91087 | 36822 ft | 551 kts | 73° |
| 2026-05-06 23:34 | 49.16297 | -63.80180 | 36862 ft | 550 kts | 73° |
| 2026-05-06 23:35 | 49.18969 | -63.69225 | 36864 ft | 550 kts | 73° |
| 2026-05-06 23:35 | 49.21631 | -63.58257 | 36867 ft | 551 kts | 73° |
| 2026-05-06 23:36 | 49.24287 | -63.47260 | 36882 ft | 550 kts | 73° |
| 2026-05-06 23:36 | 49.26929 | -63.36270 | 36871 ft | 550 kts | 73° |
| 2026-05-06 23:37 | 49.29561 | -63.25264 | 36858 ft | 549 kts | 73° |
| 2026-05-06 23:37 | 49.32176 | -63.14270 | 36877 ft | 549 kts | 73° |
| 2026-05-06 23:38 | 49.34784 | -63.03252 | 36890 ft | 550 kts | 73° |
| 2026-05-06 23:38 | 49.37333 | -62.92429 | 36885 ft | 550 kts | 73° |
| 2026-05-06 23:39 | 49.39921 | -62.81389 | 36881 ft | 549 kts | 73° |
| 2026-05-06 23:39 | 49.42495 | -62.70349 | 36888 ft | 549 kts | 73° |
| 2026-05-06 23:40 | 49.45055 | -62.59309 | 36862 ft | 548 kts | 73° |
| 2026-05-06 23:40 | 49.47600 | -62.48283 | 36885 ft | 547 kts | 73° |
| 2026-05-06 23:41 | 49.50134 | -62.37241 | 36882 ft | 547 kts | 73° |
| 2026-05-06 23:41 | 49.52655 | -62.26203 | 36883 ft | 547 kts | 73° |
| 2026-05-06 23:42 | 49.55168 | -62.15143 | 36885 ft | 547 kts | 73° |
| 2026-05-06 23:42 | 49.57670 | -62.04070 | 36887 ft | 548 kts | 73° |
| 2026-05-06 23:43 | 49.60140 | -61.93081 | 36849 ft | 548 kts | 73° |
| 2026-05-06 23:43 | 49.62604 | -61.82065 | 36882 ft | 547 kts | 73° |
| 2026-05-06 23:44 | 49.65075 | -61.70961 | 36889 ft | 547 kts | 73° |
| 2026-05-06 23:44 | 49.67536 | -61.59839 | 36915 ft | 547 kts | 73° |
| 2026-05-06 23:45 | 49.69986 | -61.48707 | 36897 ft | 547 kts | 73° |
| 2026-05-06 23:45 | 49.72424 | -61.37570 | 36899 ft | 547 kts | 73° |
| 2026-05-06 23:46 | 49.74850 | -61.26430 | 36904 ft | 547 kts | 73° |
| 2026-05-06 23:46 | 49.77265 | -61.15279 | 36909 ft | 546 kts | 74° |
| 2026-05-06 23:47 | 49.79666 | -61.04134 | 36910 ft | 546 kts | 74° |
| 2026-05-06 23:47 | 49.82035 | -60.93074 | 36913 ft | 546 kts | 74° |
| 2026-05-06 23:48 | 49.84398 | -60.81983 | 36917 ft | 546 kts | 74° |
| 2026-05-06 23:48 | 49.86766 | -60.70807 | 36919 ft | 546 kts | 74° |
| 2026-05-06 23:49 | 49.89123 | -60.59622 | 36886 ft | 546 kts | 74° |
| 2026-05-06 23:49 | 49.91467 | -60.48436 | 36922 ft | 545 kts | 74° |
| 2026-05-06 23:50 | 49.93803 | -60.37231 | 36923 ft | 546 kts | 74° |
| 2026-05-06 23:50 | 49.97285 | -60.20406 | 36929 ft | 546 kts | 74° |
| 2026-05-06 23:51 | 49.99593 | -60.09174 | 36934 ft | 546 kts | 74° |
| 2026-05-06 23:51 | 50.01675 | -59.98985 | 36947 ft | 546 kts | 74° |
| 2026-05-06 23:52 | 50.03817 | -59.88448 | 36921 ft | 545 kts | 74° |
| 2026-05-06 23:52 | 50.06002 | -59.77645 | 36936 ft | 544 kts | 74° |
| 2026-05-06 23:53 | 50.08192 | -59.66756 | 36944 ft | 543 kts | 74° |
| 2026-05-06 23:53 | 50.10316 | -59.56135 | 36947 ft | 542 kts | 74° |
| 2026-05-06 23:54 | 50.12330 | -59.46009 | 36954 ft | 541 kts | 74° |
| 2026-05-06 23:54 | 50.14486 | -59.35112 | 36952 ft | 541 kts | 74° |
| 2026-05-06 23:55 | 50.16549 | -59.24630 | 36957 ft | 541 kts | 74° |
| 2026-05-06 23:55 | 50.18608 | -59.14104 | 36971 ft | 539 kts | 74° |
| 2026-05-06 23:56 | 50.20736 | -59.03174 | 36972 ft | 539 kts | 74° |
| 2026-05-06 23:56 | 50.22718 | -58.92930 | 36965 ft | 539 kts | 74° |
| 2026-05-06 23:57 | 50.24735 | -58.82448 | 36965 ft | 538 kts | 74° |
| 2026-05-06 23:57 | 50.26770 | -58.71820 | 36958 ft | 538 kts | 74° |
| 2026-05-06 23:58 | 50.28795 | -58.61179 | 36982 ft | 538 kts | 74° |
| 2026-05-06 23:58 | 50.30832 | -58.50416 | 36947 ft | 537 kts | 74° |
| 2026-05-06 23:59 | 50.32888 | -58.39490 | 36979 ft | 536 kts | 74° |
| 2026-05-06 23:59 | 50.34898 | -58.28743 | 36976 ft | 535 kts | 74° |
| 2026-05-07 00:00 | 50.36875 | -58.18122 | 36977 ft | 534 kts | 75° |
| 2026-05-07 00:00 | 50.38837 | -58.07509 | 36987 ft | 534 kts | 75° |
| 2026-05-07 00:01 | 50.40685 | -57.97456 | 36989 ft | 534 kts | 75° |
| 2026-05-07 00:01 | 50.42641 | -57.86757 | 36992 ft | 534 kts | 75° |
| 2026-05-07 00:02 | 50.44538 | -57.76325 | 36985 ft | 533 kts | 75° |
| 2026-05-07 00:02 | 50.46420 | -57.65915 | 36984 ft | 532 kts | 75° |
| 2026-05-07 00:03 | 50.48312 | -57.55391 | 36988 ft | 531 kts | 75° |
| 2026-05-07 00:03 | 50.50174 | -57.44971 | 36997 ft | 530 kts | 75° |
| 2026-05-07 00:04 | 50.52085 | -57.34214 | 36997 ft | 530 kts | 75° |
| 2026-05-07 00:04 | 50.53958 | -57.23605 | 37010 ft | 530 kts | 75° |
| 2026-05-07 00:05 | 50.55873 | -57.12693 | 36996 ft | 530 kts | 75° |
| 2026-05-07 00:05 | 50.57730 | -57.02049 | 37008 ft | 528 kts | 75° |
| 2026-05-07 00:06 | 50.59555 | -56.91524 | 37008 ft | 527 kts | 75° |
| 2026-05-07 00:06 | 50.61414 | -56.80742 | 37006 ft | 526 kts | 75° |
| 2026-05-07 00:07 | 50.63288 | -56.69799 | 37011 ft | 525 kts | 75° |
| 2026-05-07 00:07 | 50.65149 | -56.58874 | 37003 ft | 525 kts | 75° |
| 2026-05-07 00:08 | 50.67003 | -56.47911 | 37005 ft | 524 kts | 75° |
| 2026-05-07 00:08 | 50.68808 | -56.37172 | 36983 ft | 524 kts | 75° |
| 2026-05-07 00:09 | 50.70652 | -56.26130 | 37004 ft | 522 kts | 75° |
| 2026-05-07 00:09 | 50.72388 | -56.15672 | 37014 ft | 521 kts | 75° |
| 2026-05-07 00:10 | 50.74175 | -56.04841 | 37014 ft | 521 kts | 75° |
| 2026-05-07 00:10 | 50.75818 | -55.94818 | 37017 ft | 520 kts | 75° |
| 2026-05-07 00:11 | 50.77583 | -55.83986 | 37020 ft | 520 kts | 75° |
| 2026-05-07 00:11 | 50.79316 | -55.73284 | 37027 ft | 520 kts | 75° |
| 2026-05-07 00:12 | 50.81035 | -55.62598 | 37011 ft | 520 kts | 75° |
| 2026-05-07 00:12 | 50.82776 | -55.51700 | 37024 ft | 519 kts | 75° |
| 2026-05-07 00:13 | 50.84536 | -55.40619 | 37040 ft | 518 kts | 75° |
| 2026-05-07 00:13 | 50.86283 | -55.29540 | 37033 ft | 518 kts | 75° |
| 2026-05-07 00:14 | 50.88017 | -55.18468 | 37042 ft | 518 kts | 75° |
| 2026-05-07 00:14 | 50.89740 | -55.07391 | 37054 ft | 518 kts | 75° |
| 2026-05-07 00:15 | 50.91437 | -54.96405 | 37042 ft | 518 kts | 76° |
| 2026-05-07 00:15 | 50.93139 | -54.85311 | 37048 ft | 517 kts | 75° |
| 2026-05-07 00:16 | 50.94828 | -54.74235 | 37055 ft | 516 kts | 75° |
| 2026-05-07 00:16 | 50.96503 | -54.63168 | 37057 ft | 516 kts | 76° |
| 2026-05-07 00:17 | 50.98166 | -54.52104 | 37064 ft | 515 kts | 76° |
| 2026-05-07 00:17 | 50.99818 | -54.41031 | 37048 ft | 516 kts | 76° |
| 2026-05-07 00:18 | 51.01457 | -54.29969 | 37056 ft | 516 kts | 76° |
| 2026-05-07 00:18 | 51.03090 | -54.18873 | 37071 ft | 516 kts | 76° |
| 2026-05-07 00:19 | 51.04712 | -54.07767 | 37072 ft | 516 kts | 76° |
| 2026-05-07 00:19 | 51.06311 | -53.96744 | 37063 ft | 517 kts | 76° |
| 2026-05-07 00:20 | 51.07916 | -53.85601 | 37064 ft | 517 kts | 76° |
| 2026-05-07 00:20 | 51.09512 | -53.74436 | 37070 ft | 518 kts | 76° |
| 2026-05-07 00:21 | 51.11097 | -53.63261 | 37073 ft | 518 kts | 76° |
| 2026-05-07 00:21 | 51.12674 | -53.52068 | 37074 ft | 518 kts | 77° |
| 2026-05-07 00:22 | 51.14241 | -53.40854 | 37063 ft | 518 kts | 76° |
| 2026-05-07 00:22 | 51.15796 | -53.29658 | 37078 ft | 517 kts | 76° |
| 2026-05-07 00:23 | 51.17827 | -53.18705 | 37079 ft | 514 kts | 65° |
| 2026-05-07 00:23 | 51.20704 | -53.08283 | 37095 ft | 513 kts | 64° |
| 2026-05-07 00:24 | 51.23124 | -52.99693 | 37090 ft | 513 kts | 64° |
| 2026-05-07 00:24 | 51.26011 | -52.89276 | 37102 ft | 513 kts | 64° |
| 2026-05-07 00:25 | 51.28860 | -52.78817 | 37091 ft | 514 kts | 64° |
| 2026-05-07 00:25 | 51.31694 | -52.68327 | 37099 ft | 514 kts | 65° |
| 2026-05-07 00:26 | 51.34519 | -52.57826 | 37095 ft | 514 kts | 65° |
| 2026-05-07 00:26 | 51.37339 | -52.47306 | 37070 ft | 514 kts | 65° |
| 2026-05-07 00:27 | 51.40142 | -52.36801 | 37089 ft | 513 kts | 65° |
| 2026-05-07 00:27 | 51.42930 | -52.26311 | 37101 ft | 511 kts | 65° |
| 2026-05-07 00:28 | 51.45699 | -52.15841 | 37106 ft | 510 kts | 65° |
| 2026-05-07 00:28 | 51.48454 | -52.05376 | 37106 ft | 509 kts | 65° |
| 2026-05-07 00:29 | 51.51170 | -51.95013 | 37112 ft | 508 kts | 65° |
| 2026-05-07 00:30 | 51.56624 | -51.74055 | 37112 ft | 509 kts | 65° |
| 2026-05-07 00:30 | 51.59359 | -51.63475 | 37112 ft | 509 kts | 65° |
| 2026-05-07 00:31 | 51.62067 | -51.52947 | 37108 ft | 510 kts | 65° |
| 2026-05-07 00:31 | 51.64771 | -51.42387 | 37096 ft | 510 kts | 65° |
| 2026-05-07 00:32 | 51.67463 | -51.31822 | 37115 ft | 509 kts | 65° |
| 2026-05-07 00:32 | 51.70141 | -51.21263 | 37113 ft | 509 kts | 65° |
| 2026-05-07 00:33 | 51.72809 | -51.10696 | 37110 ft | 508 kts | 65° |
| 2026-05-07 00:33 | 51.75463 | -51.00131 | 37123 ft | 508 kts | 65° |
| 2026-05-07 00:34 | 51.78082 | -50.89659 | 37116 ft | 508 kts | 65° |
| 2026-05-07 00:34 | 51.80715 | -50.79082 | 37118 ft | 507 kts | 65° |
| 2026-05-07 00:35 | 51.83339 | -50.68488 | 37115 ft | 507 kts | 65° |
| 2026-05-07 00:35 | 51.85953 | -50.57882 | 37114 ft | 508 kts | 65° |
| 2026-05-07 00:36 | 51.88559 | -50.47261 | 37120 ft | 508 kts | 65° |
| 2026-05-07 00:36 | 51.91154 | -50.36631 | 37120 ft | 508 kts | 65° |
| 2026-05-07 00:37 | 51.93741 | -50.25984 | 37119 ft | 507 kts | 65° |
| 2026-05-07 00:37 | 51.96310 | -50.15355 | 37115 ft | 506 kts | 65° |
| 2026-05-07 00:38 | 51.98871 | -50.04717 | 37126 ft | 506 kts | 65° |
| 2026-05-07 00:38 | 52.00996 | -49.93931 | 37123 ft | 508 kts | 74° |
| 2026-05-07 00:39 | 52.02579 | -49.82751 | 37125 ft | 508 kts | 75° |
| 2026-05-07 00:39 | 52.04117 | -49.71544 | 37128 ft | 508 kts | 75° |
| 2026-05-07 00:40 | 52.05681 | -49.60340 | 37129 ft | 508 kts | 75° |
| 2026-05-07 00:40 | 52.07258 | -49.49136 | 37137 ft | 509 kts | 74° |
| 2026-05-07 00:41 | 52.08834 | -49.37913 | 37126 ft | 509 kts | 74° |
| 2026-05-07 00:41 | 52.10394 | -49.26701 | 37130 ft | 508 kts | 74° |
| 2026-05-07 00:42 | 52.11940 | -49.15488 | 37128 ft | 507 kts | 75° |
| 2026-05-07 00:42 | 52.13473 | -49.04283 | 37134 ft | 507 kts | 75° |
| 2026-05-07 00:43 | 52.14977 | -48.93206 | 37137 ft | 506 kts | 75° |
| 2026-05-07 00:43 | 52.16488 | -48.81996 | 37129 ft | 506 kts | 75° |
| 2026-05-07 00:44 | 52.17984 | -48.70805 | 37134 ft | 506 kts | 75° |
| 2026-05-07 00:44 | 52.19472 | -48.59595 | 37133 ft | 506 kts | 75° |
| 2026-05-07 00:45 | 52.20947 | -48.48386 | 37131 ft | 505 kts | 75° |
| 2026-05-07 00:45 | 52.22418 | -48.37129 | 37145 ft | 504 kts | 75° |
| 2026-05-07 00:46 | 52.23858 | -48.26016 | 37134 ft | 503 kts | 75° |
| 2026-05-07 00:46 | 52.25303 | -48.14775 | 37136 ft | 503 kts | 75° |
| 2026-05-07 00:47 | 52.26718 | -48.03680 | 37138 ft | 502 kts | 75° |
| 2026-05-07 00:47 | 52.28125 | -47.92559 | 37139 ft | 502 kts | 75° |
| 2026-05-07 00:48 | 52.29528 | -47.81380 | 37152 ft | 503 kts | 75° |
| 2026-05-07 00:48 | 52.30921 | -47.70187 | 37142 ft | 503 kts | 75° |
| 2026-05-07 00:49 | 52.32303 | -47.58997 | 37142 ft | 502 kts | 75° |
| 2026-05-07 00:49 | 52.33671 | -47.47816 | 37140 ft | 501 kts | 76° |
| 2026-05-07 00:50 | 52.35026 | -47.36652 | 37141 ft | 500 kts | 76° |
| 2026-05-07 00:50 | 52.36371 | -47.25485 | 37157 ft | 500 kts | 76° |
| 2026-05-07 00:51 | 52.37704 | -47.14322 | 37143 ft | 500 kts | 76° |
| 2026-05-07 00:51 | 52.39025 | -47.03159 | 37145 ft | 500 kts | 76° |
| 2026-05-07 00:52 | 52.40322 | -46.92109 | 37144 ft | 500 kts | 76° |
| 2026-05-07 00:52 | 52.41624 | -46.80920 | 37140 ft | 500 kts | 76° |
| 2026-05-07 00:53 | 52.42913 | -46.69737 | 37160 ft | 499 kts | 76° |
| 2026-05-07 00:53 | 52.44191 | -46.58562 | 37147 ft | 499 kts | 76° |
| 2026-05-07 00:54 | 52.45456 | -46.47391 | 37156 ft | 498 kts | 76° |
| 2026-05-07 00:54 | 52.46710 | -46.36232 | 37156 ft | 498 kts | 76° |
| 2026-05-07 00:55 | 52.47953 | -46.25067 | 37152 ft | 497 kts | 76° |
| 2026-05-07 00:55 | 52.49183 | -46.13909 | 37156 ft | 497 kts | 76° |
| 2026-05-07 00:56 | 52.50404 | -46.02746 | 37159 ft | 497 kts | 76° |
| 2026-05-07 00:56 | 52.51599 | -45.91706 | 37159 ft | 496 kts | 76° |
| 2026-05-07 00:57 | 52.52794 | -45.80569 | 37157 ft | 495 kts | 76° |
| 2026-05-07 00:57 | 52.53976 | -45.69449 | 37156 ft | 494 kts | 76° |
| 2026-05-07 00:58 | 52.55146 | -45.58341 | 37161 ft | 493 kts | 76° |
| 2026-05-07 00:58 | 52.56117 | -45.49043 | 37170 ft | 493 kts | 76° |
| 2026-05-07 00:59 | 52.57837 | -45.32392 | 37159 ft | 492 kts | 77° |
| 2026-05-07 01:00 | 52.58970 | -45.21284 | 37166 ft | 492 kts | 77° |
| 2026-05-07 01:00 | 52.60092 | -45.10183 | 37170 ft | 492 kts | 77° |
| 2026-05-07 01:01 | 52.61194 | -44.99166 | 37175 ft | 493 kts | 77° |
| 2026-05-07 01:01 | 52.62297 | -44.88032 | 37171 ft | 493 kts | 77° |
| 2026-05-07 01:02 | 52.63391 | -44.76880 | 37177 ft | 493 kts | 77° |
| 2026-05-07 01:02 | 52.64474 | -44.65727 | 37177 ft | 494 kts | 77° |
| 2026-05-07 01:03 | 52.65548 | -44.54550 | 37174 ft | 494 kts | 77° |
| 2026-05-07 01:03 | 52.66611 | -44.43381 | 37181 ft | 494 kts | 77° |
| 2026-05-07 01:04 | 52.67664 | -44.32185 | 37188 ft | 495 kts | 77° |
| 2026-05-07 01:04 | 52.68708 | -44.20981 | 37183 ft | 495 kts | 77° |
| 2026-05-07 01:05 | 52.69741 | -44.09772 | 37192 ft | 494 kts | 77° |
| 2026-05-07 01:05 | 52.70751 | -43.98692 | 37186 ft | 494 kts | 77° |
| 2026-05-07 01:06 | 52.71761 | -43.87491 | 37191 ft | 493 kts | 77° |
| 2026-05-07 01:06 | 52.72759 | -43.76307 | 37211 ft | 493 kts | 78° |
| 2026-05-07 01:07 | 52.73745 | -43.65132 | 37191 ft | 492 kts | 78° |
| 2026-05-07 01:07 | 52.74719 | -43.53964 | 37202 ft | 491 kts | 78° |
| 2026-05-07 01:08 | 52.75681 | -43.42812 | 37206 ft | 491 kts | 78° |
| 2026-05-07 01:08 | 52.76633 | -43.31660 | 37198 ft | 490 kts | 78° |
| 2026-05-07 01:09 | 52.77579 | -43.20435 | 37201 ft | 490 kts | 78° |
| 2026-05-07 01:09 | 52.78501 | -43.09368 | 37201 ft | 489 kts | 78° |
| 2026-05-07 01:10 | 52.79415 | -42.98275 | 37203 ft | 488 kts | 78° |
| 2026-05-07 01:10 | 52.80319 | -42.87168 | 37203 ft | 487 kts | 78° |
| 2026-05-07 01:11 | 52.81212 | -42.76072 | 37205 ft | 487 kts | 78° |
| 2026-05-07 01:11 | 52.82094 | -42.64982 | 37207 ft | 486 kts | 78° |
| 2026-05-07 01:12 | 52.82965 | -42.53886 | 37217 ft | 488 kts | 78° |
| 2026-05-07 01:12 | 52.83831 | -42.42744 | 37215 ft | 489 kts | 78° |
| 2026-05-07 01:13 | 52.84687 | -42.31562 | 37221 ft | 491 kts | 78° |
| 2026-05-07 01:13 | 52.85536 | -42.20337 | 37213 ft | 492 kts | 78° |
| 2026-05-07 01:14 | 52.86376 | -42.09080 | 37213 ft | 493 kts | 78° |
| 2026-05-07 01:14 | 52.87199 | -41.97908 | 37236 ft | 494 kts | 78° |
| 2026-05-07 01:15 | 52.88019 | -41.86624 | 37208 ft | 493 kts | 78° |
| 2026-05-07 01:15 | 52.88826 | -41.75360 | 37210 ft | 492 kts | 78° |
| 2026-05-07 01:16 | 52.89621 | -41.64124 | 37212 ft | 491 kts | 78° |
| 2026-05-07 01:16 | 52.90403 | -41.52917 | 37213 ft | 490 kts | 78° |
| 2026-05-07 01:17 | 52.91179 | -41.41649 | 37223 ft | 489 kts | 78° |
| 2026-05-07 01:17 | 52.91933 | -41.30540 | 37215 ft | 487 kts | 78° |
| 2026-05-07 01:18 | 52.92677 | -41.19404 | 37215 ft | 485 kts | 79° |
| 2026-05-07 01:18 | 52.93415 | -41.08216 | 37213 ft | 484 kts | 79° |
| 2026-05-07 01:19 | 52.94127 | -40.97267 | 37217 ft | 483 kts | 79° |
| 2026-05-07 01:19 | 52.94837 | -40.86191 | 37217 ft | 483 kts | 79° |
| 2026-05-07 01:20 | 52.95537 | -40.75102 | 37230 ft | 484 kts | 79° |
| 2026-05-07 01:20 | 52.96225 | -40.64020 | 37210 ft | 483 kts | 79° |
| 2026-05-07 01:21 | 52.96903 | -40.52938 | 37240 ft | 482 kts | 79° |
| 2026-05-07 01:21 | 52.97569 | -40.41880 | 37218 ft | 481 kts | 79° |
| 2026-05-07 01:22 | 52.98224 | -40.30846 | 37218 ft | 480 kts | 79° |
| 2026-05-07 01:22 | 52.98868 | -40.19824 | 37240 ft | 480 kts | 79° |
| 2026-05-07 01:23 | 52.99504 | -40.08784 | 37227 ft | 481 kts | 79° |
| 2026-05-07 01:23 | 53.00258 | -39.97870 | 37226 ft | 478 kts | 73° |
| 2026-05-07 01:24 | 53.01757 | -39.87159 | 37228 ft | 476 kts | 70° |
| 2026-05-07 01:24 | 53.03344 | -39.76476 | 37222 ft | 477 kts | 71° |
| 2026-05-07 01:25 | 53.04905 | -39.65740 | 37219 ft | 478 kts | 71° |
| 2026-05-07 01:25 | 53.06438 | -39.54947 | 37221 ft | 481 kts | 71° |
| 2026-05-07 01:26 | 53.07960 | -39.44092 | 37237 ft | 483 kts | 71° |
| 2026-05-07 01:26 | 53.09476 | -39.33186 | 37223 ft | 485 kts | 71° |
| 2026-05-07 01:27 | 53.10990 | -39.22228 | 37215 ft | 486 kts | 72° |
| 2026-05-07 01:27 | 53.12495 | -39.11250 | 37214 ft | 487 kts | 72° |
| 2026-05-07 01:28 | 53.13992 | -39.00258 | 37215 ft | 487 kts | 72° |
| 2026-05-07 01:28 | 53.15463 | -38.89368 | 37209 ft | 486 kts | 72° |
| 2026-05-07 01:29 | 53.16938 | -38.78376 | 37215 ft | 485 kts | 72° |
| 2026-05-07 01:29 | 53.18399 | -38.67405 | 37218 ft | 485 kts | 72° |
| 2026-05-07 01:30 | 53.19850 | -38.56424 | 37233 ft | 485 kts | 72° |
| 2026-05-07 01:30 | 53.21291 | -38.45440 | 37215 ft | 485 kts | 72° |
| 2026-05-07 01:31 | 53.22723 | -38.34438 | 37211 ft | 485 kts | 72° |
| 2026-05-07 01:31 | 53.24144 | -38.23431 | 37217 ft | 485 kts | 72° |
| 2026-05-07 01:32 | 53.25556 | -38.12406 | 37202 ft | 486 kts | 72° |
| 2026-05-07 01:32 | 53.26958 | -38.01377 | 37231 ft | 486 kts | 72° |
| 2026-05-07 01:33 | 53.28338 | -37.90436 | 37207 ft | 485 kts | 72° |
| 2026-05-07 01:33 | 53.29726 | -37.79338 | 37203 ft | 484 kts | 73° |
| 2026-05-07 01:34 | 53.30864 | -37.70177 | 37202 ft | 484 kts | 73° |
| 2026-05-07 01:34 | 53.32222 | -37.59161 | 37202 ft | 483 kts | 73° |
| 2026-05-07 01:35 | 53.33568 | -37.48148 | 37222 ft | 483 kts | 73° |
| 2026-05-07 01:35 | 53.35130 | -37.35259 | 37204 ft | 483 kts | 73° |
| 2026-05-07 01:36 | 53.36232 | -37.26095 | 37203 ft | 483 kts | 73° |
| 2026-05-07 01:36 | 53.37547 | -37.15070 | 37201 ft | 483 kts | 73° |
| 2026-05-07 01:37 | 53.38852 | -37.04035 | 37194 ft | 483 kts | 73° |
| 2026-05-07 01:37 | 53.40133 | -36.93118 | 37234 ft | 483 kts | 73° |
| 2026-05-07 01:38 | 53.41418 | -36.82067 | 37196 ft | 482 kts | 73° |
| 2026-05-07 01:38 | 53.42688 | -36.71042 | 37197 ft | 481 kts | 73° |
| 2026-05-07 01:39 | 53.43948 | -36.60023 | 37194 ft | 480 kts | 73° |
| 2026-05-07 01:39 | 53.45194 | -36.49029 | 37193 ft | 480 kts | 73° |
| 2026-05-07 01:40 | 53.46431 | -36.38027 | 37214 ft | 480 kts | 74° |
| 2026-05-07 01:40 | 53.47659 | -36.27008 | 37199 ft | 480 kts | 74° |
| 2026-05-07 01:41 | 53.48874 | -36.15996 | 37192 ft | 480 kts | 74° |
| 2026-05-07 01:41 | 53.50081 | -36.04970 | 37194 ft | 480 kts | 74° |
| 2026-05-07 01:42 | 53.51264 | -35.94059 | 37191 ft | 480 kts | 74° |
| 2026-05-07 01:42 | 53.52452 | -35.83009 | 37194 ft | 481 kts | 74° |
| 2026-05-07 01:43 | 53.53639 | -35.71858 | 37193 ft | 481 kts | 75° |
| 2026-05-07 01:43 | 53.54807 | -35.60778 | 37192 ft | 481 kts | 75° |
| 2026-05-07 01:44 | 53.55965 | -35.49695 | 37180 ft | 481 kts | 75° |
| 2026-05-07 01:44 | 53.57112 | -35.38616 | 37179 ft | 480 kts | 75° |
| 2026-05-07 01:45 | 53.58248 | -35.27538 | 37190 ft | 480 kts | 75° |
| 2026-05-07 01:45 | 53.59373 | -35.16459 | 37179 ft | 480 kts | 75° |
| 2026-05-07 01:46 | 53.60487 | -35.05385 | 37179 ft | 480 kts | 75° |
| 2026-05-07 01:46 | 53.61579 | -34.94426 | 37182 ft | 479 kts | 75° |
| 2026-05-07 01:47 | 53.62671 | -34.83352 | 37179 ft | 479 kts | 75° |
| 2026-05-07 01:47 | 53.63754 | -34.72268 | 37190 ft | 480 kts | 75° |
| 2026-05-07 01:48 | 53.64829 | -34.61154 | 37183 ft | 480 kts | 75° |
| 2026-05-07 01:48 | 53.65893 | -34.50041 | 37174 ft | 481 kts | 75° |
| 2026-05-07 01:49 | 53.66947 | -34.38911 | 37163 ft | 481 kts | 76° |
| 2026-05-07 01:49 | 53.67991 | -34.27773 | 37169 ft | 481 kts | 76° |
| 2026-05-07 01:50 | 53.69026 | -34.16626 | 37164 ft | 482 kts | 76° |
| 2026-05-07 01:50 | 53.70052 | -34.05454 | 37168 ft | 482 kts | 76° |
| 2026-05-07 01:51 | 53.71058 | -33.94384 | 37163 ft | 482 kts | 76° |
| 2026-05-07 01:51 | 53.72064 | -33.83194 | 37164 ft | 482 kts | 76° |
| 2026-05-07 01:52 | 53.73059 | -33.71997 | 37161 ft | 482 kts | 76° |
| 2026-05-07 01:52 | 53.74044 | -33.60791 | 37155 ft | 482 kts | 76° |
| 2026-05-07 01:53 | 53.75019 | -33.49580 | 37157 ft | 482 kts | 76° |
| 2026-05-07 01:53 | 53.75984 | -33.38364 | 37157 ft | 482 kts | 76° |
| 2026-05-07 01:54 | 53.76938 | -33.27146 | 37155 ft | 482 kts | 76° |
| 2026-05-07 01:54 | 53.77881 | -33.15918 | 37156 ft | 483 kts | 76° |
| 2026-05-07 01:55 | 53.78821 | -33.04601 | 37157 ft | 483 kts | 77° |
| 2026-05-07 01:55 | 53.79731 | -32.93527 | 37152 ft | 483 kts | 77° |
| 2026-05-07 01:56 | 53.80649 | -32.82209 | 37154 ft | 482 kts | 77° |
| 2026-05-07 01:56 | 53.81550 | -32.70966 | 37144 ft | 482 kts | 77° |
| 2026-05-07 01:57 | 53.82440 | -32.59726 | 37140 ft | 482 kts | 77° |
| 2026-05-07 01:57 | 53.83319 | -32.48488 | 37150 ft | 482 kts | 77° |
| 2026-05-07 01:58 | 53.84190 | -32.37220 | 37140 ft | 483 kts | 77° |
| 2026-05-07 01:58 | 53.85051 | -32.25937 | 37139 ft | 483 kts | 77° |
| 2026-05-07 01:59 | 53.85901 | -32.14645 | 37139 ft | 484 kts | 78° |
| 2026-05-07 01:59 | 53.86742 | -32.03339 | 37134 ft | 484 kts | 78° |
| 2026-05-07 02:00 | 53.87565 | -31.92126 | 37133 ft | 485 kts | 78° |
| 2026-05-07 02:00 | 53.88388 | -31.80769 | 37135 ft | 486 kts | 78° |
| 2026-05-07 02:01 | 53.89199 | -31.69409 | 37134 ft | 485 kts | 78° |
| 2026-05-07 02:01 | 53.89999 | -31.58054 | 37129 ft | 485 kts | 78° |
| 2026-05-07 02:02 | 53.90787 | -31.46704 | 37124 ft | 484 kts | 78° |
| 2026-05-07 02:02 | 53.91565 | -31.35363 | 37132 ft | 485 kts | 79° |
| 2026-05-07 02:03 | 53.92334 | -31.24000 | 37127 ft | 485 kts | 79° |
| 2026-05-07 02:03 | 53.93091 | -31.12632 | 37129 ft | 485 kts | 79° |
| 2026-05-07 02:04 | 53.93839 | -31.01238 | 37118 ft | 486 kts | 79° |
| 2026-05-07 02:04 | 53.94569 | -30.89944 | 37121 ft | 486 kts | 79° |
| 2026-05-07 02:05 | 53.95297 | -30.78521 | 37126 ft | 487 kts | 79° |
| 2026-05-07 02:05 | 53.96015 | -30.67068 | 37121 ft | 488 kts | 79° |
| 2026-05-07 02:06 | 53.96723 | -30.55601 | 37119 ft | 488 kts | 79° |
| 2026-05-07 02:06 | 53.97421 | -30.44122 | 37123 ft | 488 kts | 80° |
| 2026-05-07 02:07 | 53.98107 | -30.32654 | 37112 ft | 488 kts | 80° |
| 2026-05-07 02:07 | 53.99121 | -30.15358 | 37106 ft | 488 kts | 81° |
| 2026-05-07 02:08 | 53.99782 | -30.03862 | 37128 ft | 489 kts | 81° |
| 2026-05-07 02:08 | 54.00368 | -29.92487 | 37113 ft | 490 kts | 82° |
| 2026-05-07 02:09 | 54.00819 | -29.80929 | 37108 ft | 490 kts | 82° |
| 2026-05-07 02:09 | 54.01173 | -29.71308 | 37141 ft | 490 kts | 83° |
| 2026-05-07 02:10 | 54.01605 | -29.59723 | 37121 ft | 492 kts | 83° |
| 2026-05-07 02:10 | 54.02042 | -29.48096 | 37107 ft | 493 kts | 83° |
| 2026-05-07 02:11 | 54.02471 | -29.36460 | 37109 ft | 494 kts | 83° |
| 2026-05-07 02:11 | 54.02890 | -29.24796 | 37101 ft | 494 kts | 83° |
| 2026-05-07 02:12 | 54.03296 | -29.13133 | 37126 ft | 494 kts | 83° |
| 2026-05-07 02:12 | 54.03691 | -29.01472 | 37109 ft | 494 kts | 83° |
| 2026-05-07 02:13 | 54.04070 | -28.89927 | 37096 ft | 494 kts | 83° |
| 2026-05-07 02:13 | 54.04442 | -28.78268 | 37096 ft | 493 kts | 84° |
| 2026-05-07 02:14 | 54.04802 | -28.66615 | 37095 ft | 493 kts | 84° |
| 2026-05-07 02:14 | 54.05152 | -28.54959 | 37116 ft | 493 kts | 84° |
| 2026-05-07 02:15 | 54.05491 | -28.43281 | 37092 ft | 494 kts | 84° |
| 2026-05-07 02:15 | 54.05819 | -28.31584 | 37090 ft | 495 kts | 84° |
| 2026-05-07 02:16 | 54.06135 | -28.19874 | 37093 ft | 496 kts | 84° |
| 2026-05-07 02:16 | 54.06443 | -28.08062 | 37092 ft | 496 kts | 84° |
| 2026-05-07 02:17 | 54.06734 | -27.96445 | 37092 ft | 496 kts | 85° |
| 2026-05-07 02:17 | 54.07017 | -27.84710 | 37085 ft | 496 kts | 85° |
| 2026-05-07 02:18 | 54.07288 | -27.72989 | 37085 ft | 495 kts | 85° |
| 2026-05-07 02:18 | 54.07547 | -27.61289 | 37086 ft | 494 kts | 85° |
| 2026-05-07 02:19 | 54.07795 | -27.49606 | 37082 ft | 494 kts | 85° |
| 2026-05-07 02:19 | 54.08031 | -27.37926 | 37098 ft | 494 kts | 85° |
| 2026-05-07 02:20 | 54.08257 | -27.26225 | 37080 ft | 495 kts | 85° |
| 2026-05-07 02:20 | 54.08471 | -27.14513 | 37076 ft | 495 kts | 85° |
| 2026-05-07 02:21 | 54.08674 | -27.02770 | 37080 ft | 496 kts | 85° |
| 2026-05-07 02:21 | 54.08864 | -26.91147 | 37077 ft | 497 kts | 86° |
| 2026-05-07 02:22 | 54.09045 | -26.79390 | 37084 ft | 497 kts | 86° |
| 2026-05-07 02:22 | 54.09215 | -26.67597 | 37072 ft | 498 kts | 86° |
| 2026-05-07 02:23 | 54.09373 | -26.55808 | 37070 ft | 498 kts | 86° |
| 2026-05-07 02:23 | 54.09519 | -26.44022 | 37064 ft | 498 kts | 86° |
| 2026-05-07 02:24 | 54.09654 | -26.32235 | 37062 ft | 497 kts | 86° |
| 2026-05-07 02:24 | 54.09777 | -26.20452 | 37077 ft | 497 kts | 87° |
| 2026-05-07 02:25 | 54.09890 | -26.08665 | 37064 ft | 498 kts | 87° |
| 2026-05-07 02:25 | 54.09989 | -25.96990 | 37060 ft | 498 kts | 87° |
| 2026-05-07 02:26 | 54.10078 | -25.85178 | 37058 ft | 499 kts | 87° |
| 2026-05-07 02:26 | 54.10156 | -25.73362 | 37057 ft | 499 kts | 87° |
| 2026-05-07 02:27 | 54.10222 | -25.61541 | 37072 ft | 499 kts | 88° |
| 2026-05-07 02:27 | 54.10277 | -25.49699 | 37059 ft | 500 kts | 88° |
| 2026-05-07 02:28 | 54.10320 | -25.37843 | 37054 ft | 500 kts | 88° |
| 2026-05-07 02:28 | 54.10351 | -25.25897 | 37049 ft | 501 kts | 88° |
| 2026-05-07 02:29 | 54.10371 | -25.14036 | 37050 ft | 501 kts | 88° |
| 2026-05-07 02:29 | 54.10379 | -25.02163 | 37058 ft | 501 kts | 89° |
| 2026-05-07 02:30 | 54.10375 | -24.90406 | 37043 ft | 502 kts | 89° |
| 2026-05-07 02:30 | 54.10360 | -24.78517 | 37043 ft | 502 kts | 89° |
| 2026-05-07 02:31 | 54.10333 | -24.66623 | 37045 ft | 502 kts | 89° |
| 2026-05-07 02:31 | 54.10294 | -24.54716 | 37041 ft | 502 kts | 89° |
| 2026-05-07 02:32 | 54.10243 | -24.42806 | 37045 ft | 503 kts | 89° |
| 2026-05-07 02:32 | 54.10181 | -24.30895 | 37035 ft | 503 kts | 90° |
| 2026-05-07 02:33 | 54.10107 | -24.18969 | 37028 ft | 503 kts | 90° |
| 2026-05-07 02:33 | 54.10021 | -24.07049 | 37030 ft | 503 kts | 90° |
| 2026-05-07 02:34 | 54.09924 | -23.95245 | 37029 ft | 503 kts | 90° |
| 2026-05-07 02:34 | 54.09815 | -23.83330 | 37030 ft | 503 kts | 90° |
| 2026-05-07 02:35 | 54.09693 | -23.71402 | 37024 ft | 503 kts | 90° |
| 2026-05-07 02:35 | 54.09560 | -23.59479 | 37025 ft | 503 kts | 91° |
| 2026-05-07 02:36 | 54.09415 | -23.47546 | 37019 ft | 504 kts | 91° |
| 2026-05-07 02:36 | 54.09259 | -23.35624 | 37019 ft | 504 kts | 91° |
| 2026-05-07 02:37 | 54.09090 | -23.23691 | 37023 ft | 504 kts | 91° |
| 2026-05-07 02:37 | 54.08910 | -23.11757 | 37015 ft | 504 kts | 91° |
| 2026-05-07 02:38 | 54.08718 | -22.99861 | 37017 ft | 505 kts | 91° |
| 2026-05-07 02:38 | 54.08515 | -22.87977 | 37005 ft | 505 kts | 91° |
| 2026-05-07 02:39 | 54.08299 | -22.76029 | 37012 ft | 505 kts | 92° |
| 2026-05-07 02:39 | 54.08071 | -22.64064 | 37008 ft | 505 kts | 92° |
| 2026-05-07 02:40 | 54.07831 | -22.52099 | 37009 ft | 506 kts | 92° |
| 2026-05-07 02:40 | 54.07578 | -22.40133 | 37003 ft | 506 kts | 92° |
| 2026-05-07 02:41 | 54.07314 | -22.28156 | 37006 ft | 506 kts | 92° |
| 2026-05-07 02:41 | 54.07036 | -22.16099 | 37000 ft | 506 kts | 92° |
| 2026-05-07 02:42 | 54.06748 | -22.04120 | 36994 ft | 506 kts | 92° |
| 2026-05-07 02:42 | 54.06451 | -21.92273 | 36991 ft | 506 kts | 92° |
| 2026-05-07 02:43 | 54.06140 | -21.80308 | 36994 ft | 506 kts | 92° |
| 2026-05-07 02:43 | 54.05816 | -21.68335 | 36994 ft | 506 kts | 93° |
| 2026-05-07 02:44 | 54.05481 | -21.56375 | 36999 ft | 506 kts | 93° |
| 2026-05-07 02:44 | 54.05133 | -21.44412 | 36991 ft | 506 kts | 93° |
| 2026-05-07 02:45 | 54.04835 | -21.34470 | 36986 ft | 506 kts | 93° |
| 2026-05-07 02:45 | 54.04402 | -21.20474 | 36986 ft | 507 kts | 93° |
| 2026-05-07 02:46 | 54.04085 | -21.10529 | 36980 ft | 507 kts | 94° |
| 2026-05-07 02:46 | 54.03696 | -20.98686 | 36989 ft | 507 kts | 94° |
| 2026-05-07 02:47 | 54.03290 | -20.86709 | 36976 ft | 507 kts | 94° |
| 2026-05-07 02:47 | 54.02873 | -20.74729 | 36977 ft | 507 kts | 94° |
| 2026-05-07 02:48 | 54.02441 | -20.62674 | 36974 ft | 508 kts | 94° |
| 2026-05-07 02:48 | 54.01999 | -20.50687 | 36954 ft | 508 kts | 94° |
| 2026-05-07 02:49 | 54.01547 | -20.38716 | 36969 ft | 508 kts | 95° |
| 2026-05-07 02:49 | 54.01081 | -20.26730 | 36968 ft | 508 kts | 95° |
| 2026-05-07 02:50 | 54.00604 | -20.14737 | 36962 ft | 509 kts | 95° |
| 2026-05-07 02:50 | 54.00056 | -20.02754 | 36963 ft | 508 kts | 98° |
| 2026-05-07 02:51 | 53.98570 | -19.91172 | 36961 ft | 506 kts | 108° |
| 2026-05-07 02:51 | 53.96502 | -19.79757 | 36964 ft | 506 kts | 109° |
| 2026-05-07 02:52 | 53.94418 | -19.68344 | 36950 ft | 506 kts | 109° |
| 2026-05-07 02:52 | 53.92359 | -19.56915 | 36951 ft | 507 kts | 109° |
| 2026-05-07 02:53 | 53.90307 | -19.45489 | 36947 ft | 506 kts | 109° |
| 2026-05-07 02:53 | 53.88252 | -19.34090 | 36951 ft | 505 kts | 109° |
| 2026-05-07 02:54 | 53.86187 | -19.22722 | 36947 ft | 505 kts | 109° |
| 2026-05-07 02:54 | 53.84110 | -19.11369 | 36942 ft | 504 kts | 110° |
| 2026-05-07 02:55 | 53.82023 | -19.00037 | 36939 ft | 504 kts | 110° |
| 2026-05-07 02:55 | 53.79951 | -18.88847 | 36937 ft | 504 kts | 110° |
| 2026-05-07 02:56 | 53.77845 | -18.77548 | 36924 ft | 504 kts | 110° |
| 2026-05-07 02:56 | 53.75733 | -18.66278 | 36931 ft | 503 kts | 110° |
| 2026-05-07 02:57 | 53.73613 | -18.55036 | 36934 ft | 502 kts | 110° |
| 2026-05-07 02:57 | 53.71484 | -18.43812 | 36934 ft | 501 kts | 110° |
| 2026-05-07 02:58 | 53.69348 | -18.32620 | 36928 ft | 501 kts | 111° |
| 2026-05-07 02:58 | 53.67203 | -18.21447 | 36928 ft | 501 kts | 111° |
| 2026-05-07 02:59 | 53.65048 | -18.10285 | 36926 ft | 500 kts | 111° |
| 2026-05-07 02:59 | 53.62908 | -17.99264 | 36921 ft | 500 kts | 111° |
| 2026-05-07 03:00 | 53.60738 | -17.88158 | 36922 ft | 499 kts | 111° |
| 2026-05-07 03:00 | 53.58559 | -17.77065 | 36926 ft | 499 kts | 111° |
| 2026-05-07 03:01 | 53.56356 | -17.65917 | 36924 ft | 499 kts | 111° |
| 2026-05-07 03:01 | 53.54161 | -17.54869 | 36920 ft | 499 kts | 111° |
| 2026-05-07 03:02 | 53.51952 | -17.43815 | 36921 ft | 499 kts | 112° |
| 2026-05-07 03:02 | 53.49734 | -17.32780 | 36918 ft | 499 kts | 112° |
| 2026-05-07 03:03 | 53.47507 | -17.21760 | 36911 ft | 497 kts | 112° |
| 2026-05-07 03:03 | 53.45277 | -17.10785 | 36910 ft | 496 kts | 112° |
| 2026-05-07 03:04 | 53.43051 | -16.99896 | 36916 ft | 496 kts | 112° |
| 2026-05-07 03:04 | 53.40820 | -16.89038 | 36910 ft | 495 kts | 112° |
| 2026-05-07 03:05 | 53.38569 | -16.78145 | 36908 ft | 495 kts | 112° |
| 2026-05-07 03:05 | 53.36310 | -16.67271 | 36912 ft | 495 kts | 112° |
| 2026-05-07 03:06 | 53.34042 | -16.56411 | 36896 ft | 494 kts | 112° |
| 2026-05-07 03:06 | 53.31770 | -16.45593 | 36918 ft | 493 kts | 113° |
| 2026-05-07 03:07 | 53.29491 | -16.34796 | 36917 ft | 492 kts | 113° |
| 2026-05-07 03:07 | 53.27205 | -16.24030 | 36914 ft | 491 kts | 113° |
| 2026-05-07 03:08 | 53.24911 | -16.13280 | 36903 ft | 491 kts | 113° |
| 2026-05-07 03:08 | 53.22608 | -16.02542 | 36902 ft | 491 kts | 113° |
| 2026-05-07 03:09 | 53.20321 | -15.91938 | 36920 ft | 491 kts | 113° |
| 2026-05-07 03:09 | 53.17999 | -15.81223 | 36905 ft | 491 kts | 113° |
| 2026-05-07 03:10 | 53.15668 | -15.70526 | 36911 ft | 491 kts | 113° |
| 2026-05-07 03:10 | 53.13330 | -15.59851 | 36913 ft | 491 kts | 113° |
| 2026-05-07 03:11 | 53.10982 | -15.49184 | 36911 ft | 491 kts | 113° |
| 2026-05-07 03:11 | 53.08611 | -15.38471 | 36904 ft | 490 kts | 113° |
| 2026-05-07 03:12 | 53.06262 | -15.27907 | 36909 ft | 490 kts | 114° |
| 2026-05-07 03:12 | 53.03874 | -15.17218 | 36912 ft | 490 kts | 114° |
| 2026-05-07 03:13 | 53.01541 | -15.06677 | 36905 ft | 490 kts | 110° |
| 2026-05-07 03:13 | 53.00151 | -14.95692 | 36916 ft | 494 kts | 99° |
| 2026-05-07 03:14 | 52.99923 | -14.84268 | 36914 ft | 497 kts | 91° |
| 2026-05-07 03:15 | 53.00065 | -14.67074 | 36916 ft | 496 kts | 91° |
| 2026-05-07 03:15 | 53.00100 | -14.55616 | 36916 ft | 496 kts | 92° |
| 2026-05-07 03:16 | 53.00099 | -14.44177 | 36912 ft | 496 kts | 92° |
| 2026-05-07 03:16 | 53.00087 | -14.32734 | 36909 ft | 495 kts | 92° |
| 2026-05-07 03:17 | 53.00066 | -14.21313 | 36908 ft | 495 kts | 92° |
| 2026-05-07 03:17 | 53.00037 | -14.09899 | 36911 ft | 494 kts | 92° |
| 2026-05-07 03:18 | 52.99918 | -13.98622 | 36925 ft | 492 kts | 96° |
| 2026-05-07 03:18 | 52.99070 | -13.87307 | 36915 ft | 490 kts | 100° |
| 2026-05-07 03:19 | 52.98097 | -13.76105 | 36915 ft | 490 kts | 100° |
| 2026-05-07 03:19 | 52.97137 | -13.64909 | 36918 ft | 490 kts | 100° |
| 2026-05-07 03:20 | 52.96192 | -13.53712 | 36907 ft | 490 kts | 100° |
| 2026-05-07 03:20 | 52.95249 | -13.42530 | 36922 ft | 489 kts | 100° |
| 2026-05-07 03:21 | 52.94460 | -13.33252 | 36922 ft | 489 kts | 100° |
| 2026-05-07 03:21 | 52.93498 | -13.22090 | 36914 ft | 489 kts | 100° |
| 2026-05-07 03:22 | 52.92526 | -13.10948 | 36918 ft | 488 kts | 100° |
| 2026-05-07 03:22 | 52.91548 | -12.99871 | 36927 ft | 488 kts | 100° |
| 2026-05-07 03:23 | 52.90562 | -12.88819 | 36915 ft | 488 kts | 100° |
| 2026-05-07 03:23 | 52.89560 | -12.77709 | 36926 ft | 488 kts | 100° |
| 2026-05-07 03:24 | 52.88547 | -12.66604 | 36922 ft | 487 kts | 100° |
| 2026-05-07 03:24 | 52.87525 | -12.55513 | 36919 ft | 487 kts | 100° |
| 2026-05-07 03:25 | 52.86494 | -12.44436 | 36917 ft | 487 kts | 100° |
| 2026-05-07 03:25 | 52.85453 | -12.33376 | 36921 ft | 486 kts | 101° |
| 2026-05-07 03:26 | 52.84402 | -12.22314 | 36921 ft | 486 kts | 101° |
| 2026-05-07 03:26 | 52.83340 | -12.11263 | 36934 ft | 486 kts | 101° |
| 2026-05-07 03:27 | 52.82271 | -12.00234 | 36922 ft | 485 kts | 101° |
| 2026-05-07 03:27 | 52.81204 | -11.89348 | 36925 ft | 485 kts | 101° |
| 2026-05-07 03:28 | 52.80115 | -11.78346 | 36933 ft | 485 kts | 101° |
| 2026-05-07 03:28 | 52.79017 | -11.67351 | 36933 ft | 485 kts | 101° |
| 2026-05-07 03:29 | 52.77909 | -11.56374 | 36930 ft | 484 kts | 101° |
| 2026-05-07 03:29 | 52.76791 | -11.45400 | 36937 ft | 484 kts | 101° |
| 2026-05-07 03:30 | 52.75664 | -11.34445 | 36949 ft | 484 kts | 101° |
| 2026-05-07 03:30 | 52.74527 | -11.23493 | 36949 ft | 484 kts | 101° |
| 2026-05-07 03:31 | 52.73381 | -11.12553 | 36945 ft | 484 kts | 101° |
| 2026-05-07 03:31 | 52.72225 | -11.01621 | 36946 ft | 483 kts | 101° |
| 2026-05-07 03:32 | 52.71072 | -10.90820 | 36947 ft | 482 kts | 101° |
| 2026-05-07 03:32 | 52.69899 | -10.79927 | 36941 ft | 482 kts | 101° |
| 2026-05-07 03:33 | 52.68717 | -10.69055 | 36940 ft | 482 kts | 102° |
| 2026-05-07 03:33 | 52.67525 | -10.58190 | 36943 ft | 482 kts | 101° |
| 2026-05-07 03:34 | 52.66324 | -10.47329 | 36960 ft | 482 kts | 102° |
| 2026-05-07 03:34 | 52.65111 | -10.36464 | 36948 ft | 482 kts | 102° |
| 2026-05-07 03:35 | 52.63889 | -10.25605 | 36951 ft | 482 kts | 102° |
| 2026-05-07 03:35 | 52.62649 | -10.14687 | 36963 ft | 482 kts | 102° |
| 2026-05-07 03:36 | 52.61406 | -10.03837 | 36943 ft | 482 kts | 102° |
| 2026-05-07 03:36 | 52.60166 | -9.93108 | 36943 ft | 482 kts | 102° |
| 2026-05-07 03:37 | 52.58905 | -9.82289 | 36962 ft | 481 kts | 102° |
| 2026-05-07 03:37 | 52.57638 | -9.71495 | 36945 ft | 480 kts | 102° |
| 2026-05-07 03:38 | 52.56364 | -9.60733 | 36955 ft | 479 kts | 102° |
| 2026-05-07 03:38 | 52.55083 | -9.50008 | 36963 ft | 478 kts | 102° |
| 2026-05-07 03:39 | 52.53802 | -9.39375 | 36969 ft | 477 kts | 102° |
| 2026-05-07 03:39 | 52.52505 | -9.28685 | 36970 ft | 477 kts | 102° |
| 2026-05-07 03:40 | 52.51199 | -9.18005 | 36973 ft | 477 kts | 102° |
| 2026-05-07 03:40 | 52.49882 | -9.07325 | 36973 ft | 477 kts | 102° |
| 2026-05-07 03:41 | 52.48569 | -8.96764 | 36969 ft | 477 kts | 102° |
| 2026-05-07 03:41 | 52.47233 | -8.86095 | 36970 ft | 477 kts | 102° |
| 2026-05-07 03:42 | 52.45887 | -8.75428 | 36950 ft | 478 kts | 102° |
| 2026-05-07 03:42 | 52.44532 | -8.64771 | 36967 ft | 477 kts | 102° |
| 2026-05-07 03:43 | 52.43168 | -8.54131 | 36964 ft | 477 kts | 102° |
| 2026-05-07 03:43 | 52.41798 | -8.43516 | 36968 ft | 476 kts | 102° |
| 2026-05-07 03:44 | 52.40421 | -8.32918 | 36968 ft | 475 kts | 102° |
| 2026-05-07 03:44 | 52.38905 | -8.22394 | 36965 ft | 474 kts | 105° |
| 2026-05-07 03:45 | 52.37123 | -8.11997 | 36971 ft | 474 kts | 106° |
| 2026-05-07 03:45 | 52.35313 | -8.01623 | 36970 ft | 474 kts | 106° |
| 2026-05-07 03:46 | 52.33537 | -7.91359 | 36967 ft | 474 kts | 106° |
| 2026-05-07 03:46 | 52.31745 | -7.80989 | 36967 ft | 474 kts | 106° |
| 2026-05-07 03:47 | 52.29945 | -7.70621 | 36971 ft | 474 kts | 106° |
| 2026-05-07 03:47 | 52.28133 | -7.60254 | 36968 ft | 475 kts | 106° |
| 2026-05-07 03:48 | 52.26313 | -7.49903 | 36969 ft | 474 kts | 107° |
| 2026-05-07 03:48 | 52.24487 | -7.39581 | 36965 ft | 473 kts | 106° |
| 2026-05-07 03:49 | 52.22657 | -7.29291 | 36973 ft | 472 kts | 106° |
| 2026-05-07 03:49 | 52.20823 | -7.19026 | 36972 ft | 471 kts | 106° |
| 2026-05-07 03:50 | 52.18989 | -7.08776 | 36972 ft | 471 kts | 105° |
| 2026-05-07 03:50 | 52.17613 | -6.98445 | 36980 ft | 471 kts | 101° |
| 2026-05-07 03:51 | 52.16346 | -6.87958 | 36975 ft | 472 kts | 101° |
| 2026-05-07 03:51 | 52.15054 | -6.77466 | 36977 ft | 473 kts | 101° |
| 2026-05-07 03:52 | 52.13732 | -6.66964 | 36983 ft | 474 kts | 102° |
| 2026-05-07 03:52 | 52.12394 | -6.56460 | 36979 ft | 474 kts | 102° |
| 2026-05-07 03:53 | 52.11048 | -6.45967 | 36979 ft | 474 kts | 102° |
| 2026-05-07 03:53 | 52.09694 | -6.35479 | 36981 ft | 473 kts | 102° |
| 2026-05-07 03:54 | 52.08333 | -6.25011 | 36979 ft | 473 kts | 102° |
| 2026-05-07 03:54 | 52.06964 | -6.14557 | 36980 ft | 473 kts | 102° |
| 2026-05-07 03:55 | 52.05579 | -6.04112 | 36985 ft | 472 kts | 103° |
| 2026-05-07 03:55 | 52.03905 | -5.93913 | 36981 ft | 472 kts | 105° |
| 2026-05-07 03:55 | 52.03004 | -5.88773 | 37123 ft | 474 kts | 106° |
| 2026-05-07 03:56 | 52.02096 | -5.83619 | 37413 ft | 476 kts | 106° |
| 2026-05-07 03:56 | 52.01201 | -5.78508 | 37703 ft | 478 kts | 106° |
| 2026-05-07 03:56 | 52.00296 | -5.73315 | 38029 ft | 479 kts | 106° |
| 2026-05-07 03:56 | 51.99390 | -5.68106 | 38320 ft | 481 kts | 106° |
| 2026-05-07 03:57 | 51.98480 | -5.62869 | 38638 ft | 482 kts | 106° |
| 2026-05-07 03:57 | 51.97569 | -5.57633 | 38878 ft | 483 kts | 106° |
| 2026-05-07 03:57 | 51.96649 | -5.52367 | 38915 ft | 487 kts | 106° |
| 2026-05-07 03:58 | 51.94799 | -5.41829 | 38976 ft | 484 kts | 106° |
| 2026-05-07 03:58 | 51.92953 | -5.31372 | 38980 ft | 482 kts | 106° |
| 2026-05-07 03:59 | 51.91181 | -5.20939 | 38985 ft | 480 kts | 102° |
| 2026-05-07 03:59 | 51.89938 | -5.10324 | 38995 ft | 479 kts | 100° |
| 2026-05-07 04:00 | 51.88749 | -4.99781 | 38990 ft | 480 kts | 101° |
| 2026-05-07 04:00 | 51.87512 | -4.89213 | 38994 ft | 481 kts | 101° |
| 2026-05-07 04:01 | 51.86242 | -4.78564 | 39000 ft | 482 kts | 101° |
| 2026-05-07 04:01 | 51.84960 | -4.67894 | 38997 ft | 484 kts | 101° |
| 2026-05-07 04:02 | 51.83672 | -4.57276 | 38997 ft | 485 kts | 101° |
| 2026-05-07 04:02 | 51.82366 | -4.46580 | 39003 ft | 485 kts | 101° |
| 2026-05-07 04:03 | 51.81049 | -4.35873 | 39005 ft | 485 kts | 101° |
| 2026-05-07 04:03 | 51.79724 | -4.25187 | 39002 ft | 485 kts | 101° |
| 2026-05-07 04:04 | 51.78615 | -4.16299 | 39003 ft | 484 kts | 102° |
| 2026-05-07 04:04 | 51.77276 | -4.05653 | 39009 ft | 483 kts | 102° |
| 2026-05-07 04:05 | 51.75727 | -3.93420 | 39008 ft | 483 kts | 102° |
| 2026-05-07 04:05 | 51.74591 | -3.84535 | 39014 ft | 483 kts | 102° |
| 2026-05-07 04:06 | 51.73223 | -3.73924 | 39018 ft | 483 kts | 102° |
| 2026-05-07 04:06 | 51.71849 | -3.63322 | 39023 ft | 484 kts | 102° |
| 2026-05-07 04:07 | 51.70670 | -3.52622 | 39020 ft | 485 kts | 96° |
| 2026-05-07 04:07 | 51.70055 | -3.41866 | 39030 ft | 485 kts | 95° |
| 2026-05-07 04:08 | 51.69467 | -3.31020 | 39052 ft | 486 kts | 95° |
| 2026-05-07 04:08 | 51.68837 | -3.20166 | 39063 ft | 487 kts | 95° |
| 2026-05-07 04:09 | 51.68177 | -3.09314 | 39070 ft | 487 kts | 96° |
| 2026-05-07 04:09 | 51.67513 | -2.98595 | 39075 ft | 486 kts | 96° |
| 2026-05-07 04:10 | 51.66833 | -2.87748 | 39074 ft | 486 kts | 96° |
| 2026-05-07 04:10 | 51.66150 | -2.77004 | 39035 ft | 485 kts | 96° |
| 2026-05-07 04:11 | 51.65453 | -2.66193 | 39038 ft | 485 kts | 96° |
| 2026-05-07 04:11 | 51.64746 | -2.55392 | 39036 ft | 485 kts | 96° |
| 2026-05-07 04:12 | 51.64031 | -2.44593 | 39046 ft | 485 kts | 96° |
| 2026-05-07 04:12 | 51.63303 | -2.33809 | 39046 ft | 485 kts | 96° |
| 2026-05-07 04:13 | 51.62564 | -2.23009 | 39050 ft | 486 kts | 96° |
| 2026-05-07 04:13 | 51.61815 | -2.12196 | 39052 ft | 486 kts | 96° |
| 2026-05-07 04:14 | 51.61057 | -2.01397 | 39053 ft | 486 kts | 96° |
| 2026-05-07 04:14 | 51.60298 | -1.90715 | 39058 ft | 487 kts | 97° |
| 2026-05-07 04:15 | 51.59519 | -1.79900 | 39056 ft | 487 kts | 97° |
| 2026-05-07 04:15 | 51.58714 | -1.69078 | 39056 ft | 487 kts | 99° |
| 2026-05-07 04:16 | 51.57115 | -1.58592 | 39056 ft | 487 kts | 109° |
| 2026-05-07 04:16 | 51.54849 | -1.48343 | 39050 ft | 487 kts | 110° |
| 2026-05-07 04:17 | 51.52616 | -1.38070 | 39050 ft | 487 kts | 109° |
| 2026-05-07 04:17 | 51.50413 | -1.27781 | 39048 ft | 487 kts | 109° |
| 2026-05-07 04:18 | 51.48500 | -1.17357 | 39050 ft | 488 kts | 101° |
| 2026-05-07 04:18 | 51.47259 | -1.06661 | 39047 ft | 488 kts | 101° |
| 2026-05-07 04:19 | 51.45977 | -0.96091 | 39050 ft | 488 kts | 102° |
| 2026-05-07 04:19 | 51.44641 | -0.85504 | 39049 ft | 488 kts | 102° |
| 2026-05-07 04:20 | 51.43287 | -0.74839 | 39049 ft | 488 kts | 102° |
| 2026-05-07 04:20 | 51.41930 | -0.64175 | 39049 ft | 488 kts | 102° |
| 2026-05-07 04:21 | 51.39879 | -0.48190 | 39049 ft | 488 kts | 102° |
| 2026-05-07 04:21 | 51.38500 | -0.37545 | 39049 ft | 488 kts | 102° |
| 2026-05-07 04:22 | 51.37112 | -0.26904 | 39049 ft | 488 kts | 102° |
| 2026-05-07 04:22 | 51.35715 | -0.16270 | 39048 ft | 488 kts | 102° |
| 2026-05-07 04:23 | 51.34315 | -0.05716 | 39046 ft | 488 kts | 102° |
| 2026-05-07 04:23 | 51.32944 | 0.04778 | 39036 ft | 488 kts | 100° |
| 2026-05-07 04:24 | 51.31894 | 0.15503 | 38977 ft | 488 kts | 98° |
| 2026-05-07 04:24 | 51.30919 | 0.26217 | 38952 ft | 489 kts | 98° |
| 2026-05-07 04:25 | 51.29915 | 0.36976 | 38928 ft | 489 kts | 99° |
| 2026-05-07 04:25 | 51.28883 | 0.47728 | 38925 ft | 490 kts | 99° |
| 2026-05-07 04:26 | 51.27833 | 0.58479 | 38937 ft | 490 kts | 99° |
| 2026-05-07 04:26 | 51.26773 | 0.69240 | 38960 ft | 491 kts | 99° |
| 2026-05-07 04:27 | 51.25703 | 0.79996 | 38986 ft | 491 kts | 99° |
| 2026-05-07 04:27 | 51.24625 | 0.90749 | 39015 ft | 491 kts | 99° |
| 2026-05-07 04:28 | 51.23546 | 1.01396 | 39042 ft | 491 kts | 99° |
| 2026-05-07 04:28 | 51.22448 | 1.12133 | 39044 ft | 491 kts | 99° |
| 2026-05-07 04:29 | 51.21340 | 1.22869 | 39039 ft | 491 kts | 99° |
| 2026-05-07 04:29 | 51.20229 | 1.33529 | 39033 ft | 491 kts | 100° |
| 2026-05-07 04:30 | 51.19102 | 1.44253 | 39031 ft | 491 kts | 100° |
| 2026-05-07 04:30 | 51.17956 | 1.55050 | 39034 ft | 491 kts | 100° |
| 2026-05-07 04:31 | 51.16809 | 1.65770 | 39033 ft | 491 kts | 100° |
| 2026-05-07 04:31 | 51.15650 | 1.76496 | 39027 ft | 491 kts | 100° |
| 2026-05-07 04:32 | 51.14482 | 1.87220 | 39028 ft | 492 kts | 100° |
| 2026-05-07 04:32 | 51.13305 | 1.97941 | 39024 ft | 491 kts | 100° |
| 2026-05-07 04:33 | 51.12543 | 2.08636 | 39026 ft | 491 kts | 95° |
| 2026-05-07 04:33 | 51.12011 | 2.19408 | 39022 ft | 492 kts | 95° |
| 2026-05-07 04:34 | 51.11444 | 2.30328 | 39019 ft | 492 kts | 95° |
| 2026-05-07 04:34 | 51.10848 | 2.41082 | 39020 ft | 491 kts | 96° |
| 2026-05-07 04:35 | 51.10235 | 2.51906 | 39018 ft | 491 kts | 96° |
| 2026-05-07 04:35 | 51.09587 | 2.62733 | 39019 ft | 491 kts | 98° |
| 2026-05-07 04:36 | 51.08119 | 2.73287 | 39020 ft | 489 kts | 107° |
| 2026-05-07 04:36 | 51.06182 | 2.83658 | 39023 ft | 489 kts | 108° |
| 2026-05-07 04:37 | 51.04235 | 2.94022 | 39020 ft | 490 kts | 107° |
| 2026-05-07 04:37 | 51.02329 | 3.04310 | 39020 ft | 490 kts | 107° |
| 2026-05-07 04:38 | 51.00412 | 3.14703 | 39021 ft | 490 kts | 107° |
| 2026-05-07 04:38 | 50.98488 | 3.25085 | 39019 ft | 491 kts | 107° |
| 2026-05-07 04:39 | 50.96551 | 3.35469 | 39015 ft | 491 kts | 107° |
| 2026-05-07 04:39 | 50.94604 | 3.45848 | 39020 ft | 491 kts | 107° |
| 2026-05-07 04:40 | 50.92644 | 3.56230 | 39019 ft | 491 kts | 108° |
| 2026-05-07 04:40 | 50.90676 | 3.66602 | 39022 ft | 492 kts | 108° |
| 2026-05-07 04:41 | 50.88698 | 3.76966 | 39016 ft | 492 kts | 108° |
| 2026-05-07 04:41 | 50.86710 | 3.87326 | 39019 ft | 492 kts | 108° |
| 2026-05-07 04:42 | 50.84726 | 3.97613 | 39020 ft | 492 kts | 108° |
| 2026-05-07 04:42 | 50.82740 | 4.07853 | 39019 ft | 492 kts | 108° |
| 2026-05-07 04:43 | 50.80724 | 4.18189 | 39022 ft | 492 kts | 108° |
| 2026-05-07 04:43 | 50.78701 | 4.28508 | 39018 ft | 492 kts | 108° |
| 2026-05-07 04:44 | 50.76668 | 4.38821 | 39024 ft | 491 kts | 108° |
| 2026-05-07 04:44 | 50.74629 | 4.49114 | 39020 ft | 491 kts | 108° |
| 2026-05-07 04:45 | 50.72581 | 4.59392 | 39023 ft | 491 kts | 108° |
| 2026-05-07 04:45 | 50.70524 | 4.69663 | 39011 ft | 491 kts | 108° |
| 2026-05-07 04:46 | 50.68474 | 4.79844 | 39017 ft | 490 kts | 109° |
| 2026-05-07 04:46 | 50.66402 | 4.90089 | 39014 ft | 490 kts | 109° |
| 2026-05-07 04:47 | 50.64337 | 5.00240 | 39019 ft | 490 kts | 109° |
| 2026-05-07 04:47 | 50.62251 | 5.10441 | 39012 ft | 490 kts | 109° |
| 2026-05-07 04:48 | 50.60151 | 5.20659 | 39013 ft | 490 kts | 109° |
| 2026-05-07 04:48 | 50.58043 | 5.30867 | 39009 ft | 490 kts | 109° |
| 2026-05-07 04:49 | 50.55925 | 5.41069 | 39006 ft | 491 kts | 109° |
| 2026-05-07 04:49 | 50.53799 | 5.51262 | 39006 ft | 491 kts | 109° |
| 2026-05-07 04:50 | 50.51677 | 5.61387 | 39000 ft | 491 kts | 109° |
| 2026-05-07 04:50 | 50.49681 | 5.71649 | 38998 ft | 491 kts | 107° |
| 2026-05-07 04:51 | 50.47857 | 5.81990 | 38997 ft | 491 kts | 107° |
| 2026-05-07 04:51 | 50.46022 | 5.92323 | 38997 ft | 491 kts | 107° |
| 2026-05-07 04:52 | 50.44163 | 6.02537 | 38983 ft | 492 kts | 107° |
| 2026-05-07 04:52 | 50.42263 | 6.12832 | 38983 ft | 491 kts | 107° |
| 2026-05-07 04:53 | 50.40351 | 6.23125 | 38981 ft | 492 kts | 107° |
| 2026-05-07 04:53 | 50.38433 | 6.33405 | 38981 ft | 491 kts | 108° |
| 2026-05-07 04:54 | 50.36508 | 6.43669 | 38975 ft | 491 kts | 108° |
| 2026-05-07 04:54 | 50.34586 | 6.53864 | 38967 ft | 491 kts | 108° |
| 2026-05-07 04:55 | 50.32646 | 6.64094 | 38968 ft | 491 kts | 108° |
| 2026-05-07 04:55 | 50.30695 | 6.74332 | 38950 ft | 491 kts | 108° |
| 2026-05-07 04:56 | 50.28737 | 6.84544 | 38950 ft | 491 kts | 108° |
| 2026-05-07 04:56 | 50.26767 | 6.94769 | 38933 ft | 491 kts | 108° |
| 2026-05-07 04:57 | 50.24810 | 7.04870 | 38939 ft | 491 kts | 108° |
| 2026-05-07 04:57 | 50.22836 | 7.15005 | 38940 ft | 491 kts | 108° |
| 2026-05-07 04:58 | 50.20840 | 7.25202 | 38941 ft | 491 kts | 108° |
| 2026-05-07 04:58 | 50.18831 | 7.35407 | 38941 ft | 492 kts | 109° |
| 2026-05-07 04:59 | 50.16816 | 7.45594 | 38953 ft | 492 kts | 109° |
| 2026-05-07 04:59 | 50.14788 | 7.55788 | 38957 ft | 492 kts | 109° |
| 2026-05-07 05:00 | 50.12752 | 7.65970 | 38946 ft | 492 kts | 109° |
| 2026-05-07 05:00 | 50.10707 | 7.76146 | 38958 ft | 492 kts | 109° |
| 2026-05-07 05:01 | 50.08650 | 7.86327 | 38946 ft | 492 kts | 109° |
| 2026-05-07 05:01 | 50.06936 | 7.94769 | 38948 ft | 492 kts | 109° |
| 2026-05-07 05:02 | 50.04548 | 8.06477 | 38958 ft | 492 kts | 109° |
| 2026-05-07 05:02 | 50.02467 | 8.16618 | 38958 ft | 492 kts | 109° |
| 2026-05-07 05:03 | 50.00730 | 8.25050 | 38946 ft | 492 kts | 110° |
| 2026-05-07 05:03 | 49.98636 | 8.35164 | 38957 ft | 492 kts | 110° |
| 2026-05-07 05:04 | 49.96519 | 8.45343 | 38943 ft | 492 kts | 110° |
| 2026-05-07 05:04 | 49.94106 | 8.55181 | 38945 ft | 490 kts | 118° |
| 2026-05-07 05:05 | 49.90712 | 8.64399 | 38956 ft | 488 kts | 123° |
| 2026-05-07 05:05 | 49.87298 | 8.73498 | 38945 ft | 489 kts | 122° |
| 2026-05-07 05:06 | 49.83941 | 8.82577 | 38946 ft | 489 kts | 122° |
| 2026-05-07 05:06 | 49.80548 | 8.91694 | 38950 ft | 489 kts | 122° |
| 2026-05-07 05:07 | 49.77172 | 9.00727 | 38949 ft | 489 kts | 122° |
| 2026-05-07 05:07 | 49.73763 | 9.09827 | 38929 ft | 489 kts | 122° |
| 2026-05-07 05:08 | 49.70346 | 9.18919 | 38935 ft | 489 kts | 122° |
| 2026-05-07 05:08 | 49.66925 | 9.27997 | 38936 ft | 489 kts | 122° |
| 2026-05-07 05:09 | 49.63497 | 9.37057 | 38932 ft | 489 kts | 123° |
| 2026-05-07 05:09 | 49.59611 | 9.45590 | 38925 ft | 485 kts | 134° |
| 2026-05-07 05:10 | 49.55132 | 9.53337 | 38924 ft | 484 kts | 135° |
| 2026-05-07 05:10 | 49.50649 | 9.61064 | 38919 ft | 484 kts | 134° |
| 2026-05-07 05:11 | 49.46189 | 9.68837 | 38918 ft | 484 kts | 134° |
| 2026-05-07 05:11 | 49.41735 | 9.76609 | 38919 ft | 485 kts | 134° |
| 2026-05-07 05:12 | 49.37259 | 9.84379 | 38896 ft | 485 kts | 134° |
| 2026-05-07 05:12 | 49.32774 | 9.92117 | 38902 ft | 485 kts | 135° |
| 2026-05-07 05:13 | 49.30519 | 9.95996 | 38337 ft | 493 kts | 135° |
| 2026-05-07 05:13 | 49.28229 | 9.99929 | 37544 ft | 493 kts | 134° |
| 2026-05-07 05:13 | 49.26002 | 10.03758 | 36755 ft | 490 kts | 134° |
| 2026-05-07 05:13 | 49.23741 | 10.07641 | 35955 ft | 487 kts | 134° |
| 2026-05-07 05:14 | 49.21489 | 10.11500 | 35096 ft | 486 kts | 134° |
| 2026-05-07 05:14 | 49.19243 | 10.15340 | 34187 ft | 486 kts | 134° |
| 2026-05-07 05:14 | 49.16990 | 10.19190 | 33092 ft | 487 kts | 133° |
| 2026-05-07 05:14 | 49.14762 | 10.22994 | 31992 ft | 487 kts | 134° |
| 2026-05-07 05:15 | 49.12486 | 10.26807 | 30969 ft | 485 kts | 135° |
| 2026-05-07 05:15 | 49.10184 | 10.30517 | 30258 ft | 478 kts | 135° |
| 2026-05-07 05:15 | 49.07897 | 10.34152 | 29409 ft | 472 kts | 136° |
| 2026-05-07 05:15 | 49.05647 | 10.37731 | 28631 ft | 465 kts | 135° |
| 2026-05-07 05:16 | 49.03432 | 10.41274 | 27914 ft | 458 kts | 135° |
| 2026-05-07 05:16 | 49.01250 | 10.44771 | 27146 ft | 453 kts | 135° |
| 2026-05-07 05:16 | 48.99089 | 10.48229 | 26348 ft | 450 kts | 135° |
| 2026-05-07 05:16 | 48.96937 | 10.51661 | 25583 ft | 446 kts | 135° |
| 2026-05-07 05:17 | 48.94800 | 10.55063 | 24886 ft | 443 kts | 135° |
| 2026-05-07 05:17 | 48.92682 | 10.58431 | 24206 ft | 439 kts | 136° |
| 2026-05-07 05:17 | 48.90608 | 10.61735 | 23968 ft | 423 kts | 138° |
| 2026-05-07 05:17 | 48.88629 | 10.64883 | 23569 ft | 413 kts | 138° |
| 2026-05-07 05:18 | 48.86654 | 10.68013 | 22894 ft | 408 kts | 138° |
| 2026-05-07 05:18 | 48.84695 | 10.71110 | 22044 ft | 408 kts | 138° |
| 2026-05-07 05:18 | 48.82731 | 10.74213 | 21219 ft | 407 kts | 137° |
| 2026-05-07 05:18 | 48.80773 | 10.77306 | 20457 ft | 406 kts | 137° |
| 2026-05-07 05:19 | 48.78815 | 10.80386 | 19698 ft | 405 kts | 137° |
| 2026-05-07 05:19 | 48.76858 | 10.83456 | 18955 ft | 404 kts | 137° |
| 2026-05-07 05:19 | 48.74907 | 10.86512 | 18245 ft | 403 kts | 137° |
| 2026-05-07 05:19 | 48.72965 | 10.89557 | 17420 ft | 402 kts | 137° |
| 2026-05-07 05:20 | 48.71025 | 10.92592 | 16620 ft | 400 kts | 137° |
| 2026-05-07 05:20 | 48.69089 | 10.95616 | 15823 ft | 398 kts | 137° |
| 2026-05-07 05:20 | 48.67166 | 10.98613 | 15076 ft | 396 kts | 137° |
| 2026-05-07 05:20 | 48.65296 | 11.01520 | 14349 ft | 394 kts | 137° |
| 2026-05-07 05:21 | 48.63555 | 11.04658 | 13602 ft | 391 kts | 125° |
| 2026-05-07 05:21 | 48.61561 | 11.12232 | 12042 ft | 391 kts | 104° |
| 2026-05-07 05:21 | 48.61133 | 11.16271 | 11284 ft | 389 kts | 99° |
| 2026-05-07 05:22 | 48.60771 | 11.20313 | 10571 ft | 387 kts | 99° |
| 2026-05-07 05:22 | 48.60418 | 11.24296 | 10234 ft | 375 kts | 99° |
| 2026-05-07 05:22 | 48.60074 | 11.28117 | 10036 ft | 360 kts | 99° |
| 2026-05-07 05:22 | 48.59735 | 11.31781 | 9935 ft | 343 kts | 100° |
| 2026-05-07 05:23 | 48.59408 | 11.35252 | 9920 ft | 325 kts | 101° |
| 2026-05-07 05:23 | 48.59096 | 11.38532 | 9918 ft | 307 kts | 101° |
| 2026-05-07 05:23 | 48.58793 | 11.41664 | 9760 ft | 297 kts | 101° |
| 2026-05-07 05:23 | 48.58495 | 11.44723 | 9423 ft | 293 kts | 101° |
| 2026-05-07 05:24 | 48.58199 | 11.47753 | 9019 ft | 291 kts | 101° |
| 2026-05-07 05:24 | 48.57903 | 11.50784 | 8574 ft | 292 kts | 101° |
| 2026-05-07 05:24 | 48.57609 | 11.53774 | 8208 ft | 291 kts | 101° |
| 2026-05-07 05:24 | 48.57313 | 11.56781 | 7873 ft | 289 kts | 101° |
| 2026-05-07 05:25 | 48.57012 | 11.59768 | 7524 ft | 286 kts | 102° |
| 2026-05-07 05:25 | 48.56507 | 11.62656 | 7149 ft | 284 kts | 111° |
| 2026-05-07 05:25 | 48.55852 | 11.65464 | 6801 ft | 283 kts | 112° |
| 2026-05-07 05:25 | 48.55176 | 11.68243 | 6470 ft | 282 kts | 112° |
| 2026-05-07 05:26 | 48.54503 | 11.71020 | 6113 ft | 282 kts | 112° |
| 2026-05-07 05:26 | 48.53842 | 11.73787 | 5816 ft | 279 kts | 112° |
| 2026-05-07 05:26 | 48.53195 | 11.76527 | 5464 ft | 277 kts | 112° |
| 2026-05-07 05:26 | 48.52550 | 11.79279 | 5071 ft | 278 kts | 111° |
| 2026-05-07 05:27 | 48.51909 | 11.82033 | 4972 ft | 279 kts | 111° |
| 2026-05-07 05:27 | 48.51265 | 11.84804 | 4987 ft | 280 kts | 111° |
| 2026-05-07 05:27 | 48.50625 | 11.87558 | 4983 ft | 277 kts | 111° |
| 2026-05-07 05:27 | 48.49991 | 11.90292 | 4976 ft | 276 kts | 111° |
| 2026-05-07 05:28 | 48.49357 | 11.93021 | 4973 ft | 276 kts | 111° |
| 2026-05-07 05:28 | 48.48722 | 11.95754 | 4978 ft | 276 kts | 111° |
| 2026-05-07 05:28 | 48.48094 | 11.98455 | 4987 ft | 277 kts | 111° |
| 2026-05-07 05:28 | 48.47469 | 12.01139 | 4991 ft | 278 kts | 111° |
| 2026-05-07 05:29 | 48.46828 | 12.03893 | 4990 ft | 279 kts | 111° |
| 2026-05-07 05:29 | 48.46182 | 12.06660 | 4981 ft | 280 kts | 111° |
| 2026-05-07 05:29 | 48.45537 | 12.09419 | 4981 ft | 279 kts | 111° |
| 2026-05-07 05:29 | 48.44893 | 12.12172 | 4980 ft | 279 kts | 111° |
| 2026-05-07 05:30 | 48.44217 | 12.14883 | 4968 ft | 269 kts | 121° |
| 2026-05-07 05:30 | 48.43000 | 12.16771 | 4948 ft | 239 kts | 163° |
| 2026-05-07 05:30 | 48.41504 | 12.17002 | 4960 ft | 204 kts | 206° |
| 2026-05-07 05:30 | 48.40341 | 12.15956 | 5007 ft | 194 kts | 225° |
| 2026-05-07 05:31 | 48.39560 | 12.14380 | 4978 ft | 187 kts | 255° |
| 2026-05-07 05:31 | 48.39243 | 12.12499 | 4990 ft | 188 kts | 257° |
| 2026-05-07 05:31 | 48.38946 | 12.10563 | 4984 ft | 190 kts | 260° |
| 2026-05-07 05:31 | 48.38735 | 12.08633 | 4963 ft | 182 kts | 262° |
| 2026-05-07 05:32 | 48.38577 | 12.06775 | 4754 ft | 174 kts | 263° |
| 2026-05-07 05:32 | 48.38439 | 12.05029 | 4547 ft | 163 kts | 263° |
| 2026-05-07 05:32 | 48.38310 | 12.03336 | 4313 ft | 163 kts | 263° |
| 2026-05-07 05:32 | 48.38180 | 12.01654 | 4064 ft | 160 kts | 263° |
| 2026-05-07 05:33 | 48.38054 | 12.00004 | 3852 ft | 158 kts | 263° |
| 2026-05-07 05:33 | 48.37929 | 11.98365 | 3629 ft | 158 kts | 263° |
| 2026-05-07 05:33 | 48.37807 | 11.96752 | 3424 ft | 152 kts | 263° |
| 2026-05-07 05:33 | 48.37689 | 11.95205 | 3233 ft | 148 kts | 263° |
| 2026-05-07 05:34 | 48.37568 | 11.93646 | 3035 ft | 150 kts | 263° |
| 2026-05-07 05:34 | 48.37454 | 11.92094 | 2837 ft | 146 kts | 263° |
| 2026-05-07 05:34 | 48.37351 | 11.90641 | 2575 ft | 133 kts | 262° |
| 2026-05-07 05:34 | 48.37236 | 11.89290 | 2503 ft | 128 kts | 262° |
| 2026-05-07 05:35 | 48.37135 | 11.87925 | 2326 ft | 134 kts | 263° |
| 2026-05-07 05:35 | 48.37025 | 11.86510 | 2114 ft | 139 kts | 262° |
| 2026-05-07 05:35 | 48.36921 | 11.85077 | 1925 ft | 138 kts | 262° |
| 2026-05-07 05:35 | 48.36807 | 11.83648 | 1715 ft | 134 kts | 262° |
| 2026-05-07 05:36 | 48.36702 | 11.82278 | 1549 ft | 131 kts | 262° |
| 2026-05-07 05:36 | 48.36598 | 11.80953 | 1480 ft | 118 kts | 265° |
| 2026-05-07 05:36 | 48.36520 | 11.79918 | 1481 ft | 78 kts | 263° |
| 2026-05-07 05:36 | 48.36475 | 11.79330 | 1486 ft | 36 kts | 263° |
| 2026-05-07 05:37 | 48.36449 | 11.79053 | 1476 ft | 25 kts | 257° |
| 2026-05-07 05:37 | 48.36366 | 11.78839 | 1474 ft | 23 kts | 234° |
| 2026-05-07 05:37 | 48.36277 | 11.78656 | 1474 ft | 21 kts | 233° |
| 2026-05-07 05:37 | 48.36191 | 11.78497 | 1478 ft | 15 kts | 213° |
| 2026-05-07 05:38 | 48.36097 | 11.78479 | 1477 ft | 13 kts | 174° |
| 2026-05-07 05:38 | 48.36039 | 11.78535 | 1477 ft | 10 kts | 110° |
| 2026-05-07 05:38 | 48.36044 | 11.78677 | 1490 ft | 19 kts | 83° |
| 2026-05-07 05:38 | 48.36062 | 11.78918 | 1479 ft | 25 kts | 83° |
| 2026-05-07 05:39 | 48.36082 | 11.79175 | 1487 ft | 21 kts | 83° |
| 2026-05-07 05:39 | 48.36094 | 11.79336 | 1477 ft | 14 kts | 83° |
| 2026-05-07 05:39 | 48.36088 | 11.79459 | 1477 ft | 9 kts | 126° |
| 2026-05-07 05:39 | 48.36031 | 11.79490 | 1477 ft | 9 kts | 171° |
| 2026-05-07 05:40 | 48.35964 | 11.79501 | 1484 ft | 10 kts | 174° |
| 2026-05-07 05:40 | 48.35890 | 11.79514 | 1476 ft | 11 kts | 173° |
| 2026-05-07 05:40 | 48.35808 | 11.79529 | 1487 ft | 12 kts | 173° |
| 2026-05-07 05:40 | 48.35721 | 11.79544 | 1478 ft | 13 kts | 174° |
| 2026-05-07 05:41 | 48.35634 | 11.79558 | 1481 ft | 10 kts | 174° |
| 2026-05-07 05:41 | 48.35560 | 11.79571 | 1479 ft | 11 kts | 173° |
| 2026-05-07 05:41 | 48.35489 | 11.79584 | 1479 ft | 8 kts | 169° |
| 2026-05-07 05:41 | 48.35465 | 11.79625 | 1479 ft | 4 kts | 108° |
| 2026-05-07 05:42 | 48.35463 | 11.79654 | 1481 ft | 3 kts | 90° |
| 2026-05-07 05:42 | 48.35466 | 11.79693 | 1488 ft | 3 kts | 84° |
| 2026-05-07 05:42 | 48.35467 | 11.79715 | 1488 ft | 2 kts | 84° |
| 2026-05-07 05:42 | 48.35469 | 11.79735 | 1490 ft | 1 kts | 83° |